CSN186 RJAA-VQPR
Flight info
| Callsign | CSN186 |
|---|---|
| Flight time | N/A |
| Altitude | 32000 |
| Route | REDEK Y60 ISAKY Y592 POTET A593 PK R343 WHA A581 IDGAG W80 ATIVU V155 BONPI W231 WFX V69 KDJ W9 BIGOR W260 ENPAT Y3 OLGUT B345 TUMLI G348 SUBSU |
| Aircraft | B752/M-VGDW/C |
Departure
| Time | 2026-05-04 21:09 |
|---|---|
| Airport | Narita International Airport (RJAA) |
Arrival
| Time | N/A |
|---|---|
| Airport | Paro International Airport (VQPR) |
| Time | Latitude | Longitude | Altitude | Speed | Heading |
|---|---|---|---|---|---|
| 2026-05-04 20:53 | 35.76528 | 140.38228 | 144 ft | 0 kts | 167° |
| 2026-05-04 20:59 | 35.76530 | 140.38228 | 144 ft | 2 kts | 167° |
| 2026-05-04 21:00 | 35.76540 | 140.38225 | 144 ft | 2 kts | 166° |
| 2026-05-04 21:00 | 35.76559 | 140.38220 | 144 ft | 2 kts | 168° |
| 2026-05-04 21:00 | 35.76574 | 140.38216 | 144 ft | 2 kts | 167° |
| 2026-05-04 21:00 | 35.76589 | 140.38214 | 144 ft | 2 kts | 195° |
| 2026-05-04 21:01 | 35.76603 | 140.38222 | 144 ft | 2 kts | 227° |
| 2026-05-04 21:01 | 35.76610 | 140.38238 | 144 ft | 2 kts | 258° |
| 2026-05-04 21:01 | 35.76609 | 140.38257 | 144 ft | 1 kts | 290° |
| 2026-05-04 21:01 | 35.76607 | 140.38263 | 144 ft | 1 kts | 301° |
| 2026-05-04 21:02 | 35.76605 | 140.38268 | 144 ft | 0 kts | 299° |
| 2026-05-04 21:03 | 35.76606 | 140.38266 | 144 ft | 0 kts | 299° |
| 2026-05-04 21:04 | 35.76617 | 140.38229 | 144 ft | 10 kts | 288° |
| 2026-05-04 21:04 | 35.76649 | 140.38091 | 144 ft | 20 kts | 287° |
| 2026-05-04 21:04 | 35.76631 | 140.37912 | 144 ft | 24 kts | 242° |
| 2026-05-04 21:04 | 35.76528 | 140.37753 | 144 ft | 22 kts | 181° |
| 2026-05-04 21:05 | 35.76378 | 140.37848 | 144 ft | 27 kts | 153° |
| 2026-05-04 21:05 | 35.76198 | 140.37982 | 144 ft | 32 kts | 150° |
| 2026-05-04 21:05 | 35.75998 | 140.38126 | 144 ft | 34 kts | 149° |
| 2026-05-04 21:05 | 35.75778 | 140.38283 | 144 ft | 39 kts | 150° |
| 2026-05-04 21:06 | 35.75539 | 140.38458 | 144 ft | 39 kts | 150° |
| 2026-05-04 21:06 | 35.75311 | 140.38623 | 144 ft | 36 kts | 149° |
| 2026-05-04 21:06 | 35.75101 | 140.38770 | 144 ft | 33 kts | 151° |
| 2026-05-04 21:06 | 35.74906 | 140.38919 | 144 ft | 32 kts | 152° |
| 2026-05-04 21:07 | 35.74706 | 140.39061 | 144 ft | 33 kts | 149° |
| 2026-05-04 21:07 | 35.74509 | 140.39200 | 144 ft | 31 kts | 150° |
| 2026-05-04 21:07 | 35.74412 | 140.39220 | 144 ft | 7 kts | 238° |
| 2026-05-04 21:07 | 35.74383 | 140.39151 | 144 ft | 11 kts | 244° |
| 2026-05-04 21:08 | 35.74365 | 140.39056 | 144 ft | 10 kts | 310° |
| 2026-05-04 21:08 | 35.74418 | 140.39014 | 144 ft | 10 kts | 329° |
| 2026-05-04 21:08 | 35.74511 | 140.38945 | 144 ft | 39 kts | 329° |
| 2026-05-04 21:08 | 35.75105 | 140.38515 | 145 ft | 107 kts | 329° |
| 2026-05-04 21:09 | 35.75872 | 140.37956 | 145 ft | 151 kts | 329° |
| 2026-05-04 21:09 | 35.76770 | 140.37297 | 663 ft | 146 kts | 328° |
| 2026-05-04 21:09 | 35.77648 | 140.36635 | 965 ft | 154 kts | 328° |
| 2026-05-04 21:09 | 35.78598 | 140.35933 | 1322 ft | 161 kts | 327° |
| 2026-05-04 21:10 | 35.79525 | 140.35153 | 1744 ft | 165 kts | 324° |
| 2026-05-04 21:10 | 35.80494 | 140.34384 | 2174 ft | 167 kts | 326° |
| 2026-05-04 21:10 | 35.81473 | 140.33592 | 2621 ft | 169 kts | 326° |
| 2026-05-04 21:10 | 35.82419 | 140.32762 | 3082 ft | 168 kts | 321° |
| 2026-05-04 21:11 | 35.83313 | 140.31883 | 3564 ft | 165 kts | 323° |
| 2026-05-04 21:11 | 35.84285 | 140.31148 | 4003 ft | 163 kts | 332° |
| 2026-05-04 21:11 | 35.85320 | 140.30528 | 4298 ft | 170 kts | 333° |
| 2026-05-04 21:11 | 35.86454 | 140.29913 | 4342 ft | 190 kts | 334° |
| 2026-05-04 21:12 | 35.87288 | 140.29430 | 4333 ft | 208 kts | 332° |
| 2026-05-04 21:12 | 35.89131 | 140.28235 | 4462 ft | 240 kts | 330° |
| 2026-05-04 21:12 | 35.90598 | 140.27226 | 5002 ft | 245 kts | 329° |
| 2026-05-04 21:12 | 35.92136 | 140.26143 | 5248 ft | 264 kts | 329° |
| 2026-05-04 21:13 | 35.93710 | 140.25018 | 5982 ft | 263 kts | 328° |
| 2026-05-04 21:13 | 35.95303 | 140.23871 | 6581 ft | 267 kts | 328° |
| 2026-05-04 21:13 | 35.96964 | 140.22826 | 7088 ft | 274 kts | 341° |
| 2026-05-04 21:13 | 35.98852 | 140.22598 | 7125 ft | 277 kts | 7° |
| 2026-05-04 21:14 | 36.00623 | 140.23456 | 7122 ft | 277 kts | 35° |
| 2026-05-04 21:14 | 36.02037 | 140.25119 | 7114 ft | 280 kts | 45° |
| 2026-05-04 21:14 | 36.03334 | 140.26903 | 7102 ft | 282 kts | 54° |
| 2026-05-04 21:14 | 36.03915 | 140.28355 | 7221 ft | 287 kts | 74° |
| 2026-05-04 21:15 | 36.04166 | 140.31601 | 8194 ft | 285 kts | 87° |
| 2026-05-04 21:15 | 36.04232 | 140.34055 | 8721 ft | 291 kts | 88° |
| 2026-05-04 21:15 | 36.04277 | 140.36530 | 9335 ft | 292 kts | 88° |
| 2026-05-04 21:15 | 36.04310 | 140.39075 | 9908 ft | 296 kts | 89° |
| 2026-05-04 21:16 | 36.04324 | 140.41617 | 10425 ft | 301 kts | 92° |
| 2026-05-04 21:16 | 36.03869 | 140.44218 | 10501 ft | 322 kts | 114° |
| 2026-05-04 21:16 | 36.02750 | 140.46716 | 10544 ft | 345 kts | 123° |
| 2026-05-04 21:16 | 36.01447 | 140.49298 | 10627 ft | 366 kts | 122° |
| 2026-05-04 21:17 | 36.00117 | 140.51994 | 11377 ft | 366 kts | 122° |
| 2026-05-04 21:17 | 35.98604 | 140.54478 | 11965 ft | 370 kts | 133° |
| 2026-05-04 21:17 | 35.96841 | 140.56795 | 12585 ft | 374 kts | 134° |
| 2026-05-04 21:17 | 35.95042 | 140.59168 | 13170 ft | 379 kts | 134° |
| 2026-05-04 21:18 | 35.93245 | 140.61533 | 13754 ft | 383 kts | 134° |
| 2026-05-04 21:18 | 35.91318 | 140.63789 | 14315 ft | 385 kts | 145° |
| 2026-05-04 21:18 | 35.89010 | 140.65401 | 14870 ft | 385 kts | 162° |
| 2026-05-04 21:18 | 35.86426 | 140.66202 | 15433 ft | 383 kts | 178° |
| 2026-05-04 21:19 | 35.83800 | 140.66144 | 15979 ft | 381 kts | 191° |
| 2026-05-04 21:19 | 35.81177 | 140.65620 | 16549 ft | 383 kts | 193° |
| 2026-05-04 21:19 | 35.78567 | 140.65079 | 17092 ft | 386 kts | 193° |
| 2026-05-04 21:19 | 35.75901 | 140.64496 | 17633 ft | 388 kts | 197° |
| 2026-05-04 21:20 | 35.73381 | 140.63411 | 18141 ft | 385 kts | 211° |
| 2026-05-04 21:20 | 35.71198 | 140.61557 | 18652 ft | 380 kts | 226° |
| 2026-05-04 21:20 | 35.69466 | 140.59139 | 19164 ft | 378 kts | 238° |
| 2026-05-04 21:20 | 35.68172 | 140.56367 | 19663 ft | 377 kts | 249° |
| 2026-05-04 21:21 | 35.67265 | 140.53369 | 20166 ft | 378 kts | 253° |
| 2026-05-04 21:21 | 35.66398 | 140.50333 | 20655 ft | 380 kts | 252° |
| 2026-05-04 21:21 | 35.65494 | 140.47266 | 21137 ft | 382 kts | 252° |
| 2026-05-04 21:21 | 35.64581 | 140.44197 | 21610 ft | 383 kts | 252° |
| 2026-05-04 21:22 | 35.63656 | 140.41107 | 22061 ft | 385 kts | 252° |
| 2026-05-04 21:22 | 35.62725 | 140.38011 | 22514 ft | 387 kts | 252° |
| 2026-05-04 21:22 | 35.61791 | 140.34907 | 22944 ft | 389 kts | 252° |
| 2026-05-04 21:22 | 35.60860 | 140.31827 | 23358 ft | 391 kts | 252° |
| 2026-05-04 21:23 | 35.59902 | 140.28661 | 23797 ft | 392 kts | 252° |
| 2026-05-04 21:23 | 35.58952 | 140.25525 | 24187 ft | 394 kts | 252° |
| 2026-05-04 21:23 | 35.58005 | 140.22400 | 24612 ft | 395 kts | 252° |
| 2026-05-04 21:23 | 35.57037 | 140.19214 | 24974 ft | 398 kts | 252° |
| 2026-05-04 21:24 | 35.56083 | 140.16072 | 25380 ft | 398 kts | 252° |
| 2026-05-04 21:24 | 35.55111 | 140.12882 | 25716 ft | 401 kts | 252° |
| 2026-05-04 21:24 | 35.54126 | 140.09648 | 26073 ft | 403 kts | 252° |
| 2026-05-04 21:24 | 35.53156 | 140.06470 | 26421 ft | 404 kts | 252° |
| 2026-05-04 21:25 | 35.52164 | 140.03220 | 26780 ft | 405 kts | 252° |
| 2026-05-04 21:25 | 35.51181 | 140.00003 | 27100 ft | 407 kts | 252° |
| 2026-05-04 21:25 | 35.50176 | 139.96721 | 27407 ft | 409 kts | 252° |
| 2026-05-04 21:25 | 35.49172 | 139.93445 | 27737 ft | 410 kts | 252° |
| 2026-05-04 21:26 | 35.48180 | 139.90208 | 28031 ft | 412 kts | 252° |
| 2026-05-04 21:26 | 35.47154 | 139.86922 | 28311 ft | 414 kts | 252° |
| 2026-05-04 21:26 | 35.46121 | 139.83644 | 28646 ft | 414 kts | 252° |
| 2026-05-04 21:26 | 35.45075 | 139.80324 | 28911 ft | 416 kts | 252° |
| 2026-05-04 21:27 | 35.44030 | 139.77014 | 29187 ft | 418 kts | 252° |
| 2026-05-04 21:27 | 35.42976 | 139.73675 | 29471 ft | 419 kts | 252° |
| 2026-05-04 21:27 | 35.41931 | 139.70372 | 29705 ft | 421 kts | 252° |
| 2026-05-04 21:27 | 35.40878 | 139.67046 | 29977 ft | 421 kts | 252° |
| 2026-05-04 21:28 | 35.39821 | 139.63710 | 30234 ft | 422 kts | 252° |
| 2026-05-04 21:28 | 35.38746 | 139.60319 | 30457 ft | 424 kts | 252° |
| 2026-05-04 21:28 | 35.37675 | 139.56947 | 30700 ft | 425 kts | 252° |
| 2026-05-04 21:28 | 35.36614 | 139.53615 | 30900 ft | 427 kts | 253° |
| 2026-05-04 21:29 | 35.35538 | 139.50220 | 31216 ft | 425 kts | 254° |
| 2026-05-04 21:29 | 35.34757 | 139.46788 | 31535 ft | 419 kts | 263° |
| 2026-05-04 21:29 | 35.34440 | 139.43249 | 31865 ft | 415 kts | 268° |
| 2026-05-04 21:29 | 35.34261 | 139.39766 | 32096 ft | 414 kts | 268° |
| 2026-05-04 21:30 | 35.33903 | 139.32752 | 32131 ft | 413 kts | 268° |
| 2026-05-04 21:30 | 35.33559 | 139.25716 | 32132 ft | 413 kts | 268° |
| 2026-05-04 21:31 | 35.33054 | 139.15234 | 32130 ft | 413 kts | 268° |
| 2026-05-04 21:32 | 35.32713 | 139.08211 | 32129 ft | 413 kts | 268° |
| 2026-05-04 21:32 | 35.32371 | 139.01234 | 32129 ft | 414 kts | 268° |
| 2026-05-04 21:33 | 35.32023 | 138.94212 | 32127 ft | 414 kts | 268° |
| 2026-05-04 21:33 | 35.31672 | 138.87195 | 32125 ft | 414 kts | 268° |
| 2026-05-04 21:34 | 35.31315 | 138.80154 | 32121 ft | 414 kts | 268° |
| 2026-05-04 21:34 | 35.30956 | 138.73151 | 32117 ft | 414 kts | 268° |
| 2026-05-04 21:35 | 35.30593 | 138.66154 | 32112 ft | 414 kts | 268° |
| 2026-05-04 21:35 | 35.30225 | 138.59117 | 32105 ft | 413 kts | 268° |
| 2026-05-04 21:36 | 35.29856 | 138.52153 | 32099 ft | 413 kts | 268° |
| 2026-05-04 21:36 | 35.29480 | 138.45126 | 32093 ft | 413 kts | 268° |
| 2026-05-04 21:37 | 35.29099 | 138.38097 | 32093 ft | 414 kts | 268° |
| 2026-05-04 21:37 | 35.28717 | 138.31110 | 32107 ft | 414 kts | 268° |
| 2026-05-04 21:38 | 35.28328 | 138.24086 | 32105 ft | 414 kts | 268° |
| 2026-05-04 21:38 | 35.27937 | 138.17081 | 32104 ft | 414 kts | 268° |
| 2026-05-04 21:39 | 35.27542 | 138.10088 | 32103 ft | 414 kts | 268° |
| 2026-05-04 21:39 | 35.27139 | 138.03043 | 32102 ft | 414 kts | 268° |
| 2026-05-04 21:40 | 35.26736 | 137.96037 | 32101 ft | 414 kts | 268° |
| 2026-05-04 21:40 | 35.26329 | 137.89058 | 32100 ft | 414 kts | 268° |
| 2026-05-04 21:41 | 35.25916 | 137.82019 | 32099 ft | 414 kts | 268° |
| 2026-05-04 21:41 | 35.25431 | 137.75056 | 32099 ft | 414 kts | 266° |
| 2026-05-04 21:42 | 35.24907 | 137.68051 | 32102 ft | 414 kts | 266° |
| 2026-05-04 21:42 | 35.24309 | 137.61038 | 32105 ft | 416 kts | 262° |
| 2026-05-04 21:43 | 35.22613 | 137.54268 | 32105 ft | 419 kts | 255° |
| 2026-05-04 21:43 | 35.20724 | 137.47553 | 32104 ft | 419 kts | 255° |
| 2026-05-04 21:44 | 35.18824 | 137.40877 | 32114 ft | 419 kts | 255° |
| 2026-05-04 21:44 | 35.16902 | 137.34161 | 32133 ft | 419 kts | 254° |
| 2026-05-04 21:45 | 35.14975 | 137.27455 | 32157 ft | 420 kts | 254° |
| 2026-05-04 21:45 | 35.13033 | 137.20720 | 32159 ft | 419 kts | 254° |
| 2026-05-04 21:46 | 35.11106 | 137.14050 | 32158 ft | 419 kts | 254° |
| 2026-05-04 21:46 | 35.09167 | 137.07356 | 32157 ft | 419 kts | 254° |
| 2026-05-04 21:47 | 35.07219 | 137.00648 | 32156 ft | 419 kts | 254° |
| 2026-05-04 21:47 | 35.05271 | 136.93956 | 32155 ft | 419 kts | 254° |
| 2026-05-04 21:48 | 35.03323 | 136.87279 | 32154 ft | 418 kts | 254° |
| 2026-05-04 21:48 | 35.01359 | 136.80560 | 32154 ft | 422 kts | 254° |
| 2026-05-04 21:49 | 34.99638 | 136.73753 | 32152 ft | 422 kts | 256° |
| 2026-05-04 21:49 | 34.97948 | 136.66916 | 32152 ft | 425 kts | 256° |
| 2026-05-04 21:50 | 34.96244 | 136.60048 | 32151 ft | 426 kts | 256° |
| 2026-05-04 21:50 | 34.94524 | 136.53137 | 32151 ft | 429 kts | 256° |
| 2026-05-04 21:51 | 34.92788 | 136.46185 | 32151 ft | 431 kts | 256° |
| 2026-05-04 21:51 | 34.91042 | 136.39210 | 32150 ft | 433 kts | 256° |
| 2026-05-04 21:52 | 34.89282 | 136.32201 | 32157 ft | 435 kts | 255° |
| 2026-05-04 21:52 | 34.87505 | 136.25145 | 32162 ft | 437 kts | 255° |
| 2026-05-04 21:53 | 34.85721 | 136.18080 | 32169 ft | 436 kts | 255° |
| 2026-05-04 21:53 | 34.83943 | 136.11055 | 32177 ft | 436 kts | 255° |
| 2026-05-04 21:54 | 34.82146 | 136.03975 | 32182 ft | 436 kts | 255° |
| 2026-05-04 21:54 | 34.80364 | 135.96976 | 32181 ft | 436 kts | 255° |
| 2026-05-04 21:55 | 34.78570 | 135.89944 | 32181 ft | 436 kts | 255° |
| 2026-05-04 21:55 | 34.76761 | 135.82875 | 32179 ft | 436 kts | 255° |
| 2026-05-04 21:56 | 34.74966 | 135.75880 | 32179 ft | 436 kts | 255° |
| 2026-05-04 21:56 | 34.73163 | 135.68869 | 32179 ft | 437 kts | 255° |
| 2026-05-04 21:57 | 34.71348 | 135.61835 | 32178 ft | 436 kts | 255° |
| 2026-05-04 21:57 | 34.69525 | 135.54787 | 32177 ft | 436 kts | 255° |
| 2026-05-04 21:58 | 34.67713 | 135.47800 | 32180 ft | 437 kts | 255° |
| 2026-05-04 21:58 | 34.65894 | 135.40804 | 32182 ft | 436 kts | 255° |
| 2026-05-04 21:59 | 34.64490 | 135.33664 | 32193 ft | 435 kts | 260° |
| 2026-05-04 21:59 | 34.63232 | 135.26480 | 32202 ft | 435 kts | 260° |
| 2026-05-04 22:00 | 34.61956 | 135.19318 | 32207 ft | 435 kts | 260° |
| 2026-05-04 22:00 | 34.60667 | 135.12148 | 32209 ft | 435 kts | 259° |
| 2026-05-04 22:01 | 34.59378 | 135.05013 | 32210 ft | 434 kts | 259° |
| 2026-05-04 22:01 | 34.58088 | 134.97910 | 32210 ft | 434 kts | 260° |
| 2026-05-04 22:02 | 34.56786 | 134.90758 | 32208 ft | 434 kts | 260° |
| 2026-05-04 22:02 | 34.55476 | 134.83597 | 32204 ft | 434 kts | 260° |
| 2026-05-04 22:03 | 34.54179 | 134.76529 | 32196 ft | 433 kts | 260° |
| 2026-05-04 22:03 | 34.52864 | 134.69388 | 32188 ft | 433 kts | 260° |
| 2026-05-04 22:04 | 34.51552 | 134.62285 | 32178 ft | 433 kts | 259° |
| 2026-05-04 22:04 | 34.50233 | 134.55173 | 32176 ft | 433 kts | 260° |
| 2026-05-04 22:05 | 34.48914 | 134.48084 | 32176 ft | 433 kts | 260° |
| 2026-05-04 22:05 | 34.47580 | 134.40941 | 32178 ft | 433 kts | 260° |
| 2026-05-04 22:06 | 34.46256 | 134.33868 | 32179 ft | 433 kts | 259° |
| 2026-05-04 22:06 | 34.44919 | 134.26761 | 32185 ft | 433 kts | 259° |
| 2026-05-04 22:07 | 34.43581 | 134.19665 | 32181 ft | 433 kts | 259° |
| 2026-05-04 22:07 | 34.42241 | 134.12584 | 32183 ft | 433 kts | 259° |
| 2026-05-04 22:08 | 34.40890 | 134.05464 | 32181 ft | 433 kts | 259° |
| 2026-05-04 22:08 | 34.39542 | 133.98381 | 32184 ft | 433 kts | 259° |
| 2026-05-04 22:09 | 34.38185 | 133.91280 | 32184 ft | 433 kts | 259° |
| 2026-05-04 22:09 | 34.36829 | 133.84204 | 32180 ft | 433 kts | 259° |
| 2026-05-04 22:10 | 34.35469 | 133.77132 | 32180 ft | 432 kts | 259° |
| 2026-05-04 22:10 | 34.34113 | 133.70103 | 32180 ft | 433 kts | 259° |
| 2026-05-04 22:11 | 34.32735 | 133.62985 | 32180 ft | 433 kts | 259° |
| 2026-05-04 22:11 | 34.31097 | 133.56004 | 32180 ft | 435 kts | 254° |
| 2026-05-04 22:12 | 34.29147 | 133.49106 | 32185 ft | 435 kts | 254° |
| 2026-05-04 22:12 | 34.27176 | 133.42177 | 32178 ft | 436 kts | 254° |
| 2026-05-04 22:13 | 34.25205 | 133.35274 | 32176 ft | 435 kts | 254° |
| 2026-05-04 22:13 | 34.23228 | 133.28377 | 32185 ft | 436 kts | 253° |
| 2026-05-04 22:14 | 34.21255 | 133.21510 | 32186 ft | 435 kts | 253° |
| 2026-05-04 22:14 | 34.19264 | 133.14600 | 32184 ft | 435 kts | 253° |
| 2026-05-04 22:15 | 34.17285 | 133.07747 | 32182 ft | 433 kts | 253° |
| 2026-05-04 22:15 | 34.15307 | 133.00913 | 32183 ft | 433 kts | 253° |
| 2026-05-04 22:16 | 34.13324 | 132.94076 | 32181 ft | 432 kts | 253° |
| 2026-05-04 22:16 | 34.11336 | 132.87241 | 32182 ft | 432 kts | 253° |
| 2026-05-04 22:17 | 34.09351 | 132.80434 | 32180 ft | 432 kts | 253° |
| 2026-05-04 22:17 | 34.07361 | 132.73621 | 32181 ft | 431 kts | 253° |
| 2026-05-04 22:18 | 34.05367 | 132.66811 | 32182 ft | 432 kts | 253° |
| 2026-05-04 22:18 | 34.03366 | 132.59994 | 32189 ft | 432 kts | 253° |
| 2026-05-04 22:19 | 34.01360 | 132.53181 | 32189 ft | 432 kts | 253° |
| 2026-05-04 22:19 | 33.99355 | 132.46382 | 32191 ft | 432 kts | 253° |
| 2026-05-04 22:20 | 33.97350 | 132.39600 | 32190 ft | 432 kts | 253° |
| 2026-05-04 22:20 | 33.95337 | 132.32806 | 32204 ft | 432 kts | 253° |
| 2026-05-04 22:21 | 33.93315 | 132.26003 | 32209 ft | 432 kts | 253° |
| 2026-05-04 22:21 | 33.91302 | 132.19157 | 32214 ft | 431 kts | 255° |
| 2026-05-04 22:22 | 33.89790 | 132.12239 | 32212 ft | 430 kts | 258° |
| 2026-05-04 22:22 | 33.88281 | 132.05295 | 32206 ft | 431 kts | 257° |
| 2026-05-04 22:23 | 33.86752 | 131.98337 | 32201 ft | 430 kts | 257° |
| 2026-05-04 22:23 | 33.85215 | 131.91389 | 32194 ft | 430 kts | 257° |
| 2026-05-04 22:24 | 33.83679 | 131.84470 | 32189 ft | 431 kts | 257° |
| 2026-05-04 22:24 | 33.82134 | 131.77536 | 32179 ft | 430 kts | 257° |
| 2026-05-04 22:25 | 33.80585 | 131.70605 | 32175 ft | 430 kts | 257° |
| 2026-05-04 22:25 | 33.79023 | 131.63638 | 32178 ft | 431 kts | 257° |
| 2026-05-04 22:26 | 33.77471 | 131.56735 | 32176 ft | 430 kts | 257° |
| 2026-05-04 22:26 | 33.75910 | 131.49811 | 32175 ft | 431 kts | 257° |
| 2026-05-04 22:27 | 33.74336 | 131.42851 | 32177 ft | 430 kts | 257° |
| 2026-05-04 22:27 | 33.72776 | 131.35968 | 32174 ft | 431 kts | 257° |
| 2026-05-04 22:28 | 33.71197 | 131.29022 | 32183 ft | 431 kts | 257° |
| 2026-05-04 22:28 | 33.69623 | 131.22124 | 32183 ft | 430 kts | 257° |
| 2026-05-04 22:29 | 33.68036 | 131.15181 | 32184 ft | 431 kts | 257° |
| 2026-05-04 22:29 | 33.66450 | 131.08264 | 32182 ft | 431 kts | 257° |
| 2026-05-04 22:30 | 33.64865 | 131.01372 | 32180 ft | 431 kts | 257° |
| 2026-05-04 22:30 | 33.63267 | 130.94441 | 32181 ft | 431 kts | 257° |
| 2026-05-04 22:31 | 33.61672 | 130.87541 | 32181 ft | 431 kts | 256° |
| 2026-05-04 22:31 | 33.60062 | 130.80598 | 32180 ft | 431 kts | 256° |
| 2026-05-04 22:32 | 33.58464 | 130.73724 | 32179 ft | 431 kts | 256° |
| 2026-05-04 22:32 | 33.56846 | 130.66789 | 32178 ft | 430 kts | 256° |
| 2026-05-04 22:33 | 33.55236 | 130.59900 | 32178 ft | 431 kts | 256° |
| 2026-05-04 22:33 | 33.53625 | 130.53032 | 32177 ft | 431 kts | 256° |
| 2026-05-04 22:34 | 33.51992 | 130.46101 | 32176 ft | 431 kts | 255° |
| 2026-05-04 22:34 | 33.49683 | 130.39488 | 32176 ft | 433 kts | 248° |
| 2026-05-04 22:35 | 33.47189 | 130.32991 | 32184 ft | 433 kts | 248° |
| 2026-05-04 22:35 | 33.44655 | 130.26450 | 32185 ft | 433 kts | 248° |
| 2026-05-04 22:36 | 33.42112 | 130.19920 | 32185 ft | 433 kts | 248° |
| 2026-05-04 22:36 | 33.39569 | 130.13405 | 32183 ft | 433 kts | 248° |
| 2026-05-04 22:37 | 33.37018 | 130.06891 | 32183 ft | 433 kts | 248° |
| 2026-05-04 22:37 | 33.34481 | 130.00423 | 32179 ft | 433 kts | 247° |
| 2026-05-04 22:38 | 33.31921 | 129.93907 | 32178 ft | 433 kts | 247° |
| 2026-05-04 22:38 | 33.29355 | 129.87390 | 32178 ft | 433 kts | 248° |
| 2026-05-04 22:39 | 33.26796 | 129.80905 | 32180 ft | 433 kts | 247° |
| 2026-05-04 22:39 | 33.24229 | 129.74412 | 32180 ft | 434 kts | 247° |
| 2026-05-04 22:40 | 33.21667 | 129.67943 | 32179 ft | 433 kts | 247° |
| 2026-05-04 22:40 | 33.19260 | 129.61354 | 32179 ft | 432 kts | 250° |
| 2026-05-04 22:41 | 33.17009 | 129.54726 | 32176 ft | 432 kts | 250° |
| 2026-05-04 22:41 | 33.14747 | 129.48100 | 32174 ft | 432 kts | 250° |
| 2026-05-04 22:42 | 33.12493 | 129.41516 | 32174 ft | 432 kts | 250° |
| 2026-05-04 22:42 | 33.10220 | 129.34892 | 32175 ft | 434 kts | 250° |
| 2026-05-04 22:43 | 33.07912 | 129.28181 | 32185 ft | 438 kts | 250° |
| 2026-05-04 22:43 | 33.05595 | 129.21462 | 32185 ft | 441 kts | 250° |
| 2026-05-04 22:44 | 33.03260 | 129.14699 | 32183 ft | 444 kts | 249° |
| 2026-05-04 22:44 | 33.00905 | 129.07896 | 32183 ft | 447 kts | 249° |
| 2026-05-04 22:45 | 32.98518 | 129.01015 | 32182 ft | 450 kts | 249° |
| 2026-05-04 22:45 | 32.94934 | 128.90709 | 32182 ft | 454 kts | 249° |
| 2026-05-04 22:46 | 32.92515 | 128.83774 | 32181 ft | 452 kts | 249° |
| 2026-05-04 22:46 | 32.90106 | 128.76881 | 32181 ft | 452 kts | 249° |
| 2026-05-04 22:47 | 32.87696 | 128.70000 | 32180 ft | 453 kts | 249° |
| 2026-05-04 22:47 | 32.85284 | 128.63129 | 32180 ft | 452 kts | 249° |
| 2026-05-04 22:48 | 32.82854 | 128.56221 | 32179 ft | 452 kts | 249° |
| 2026-05-04 22:48 | 32.80437 | 128.49362 | 32179 ft | 452 kts | 249° |
| 2026-05-04 22:49 | 32.78019 | 128.42517 | 32178 ft | 452 kts | 249° |
| 2026-05-04 22:49 | 32.75588 | 128.35645 | 32178 ft | 452 kts | 249° |
| 2026-05-04 22:50 | 32.73151 | 128.28772 | 32184 ft | 453 kts | 248° |
| 2026-05-04 22:50 | 32.70709 | 128.21902 | 32183 ft | 452 kts | 248° |
| 2026-05-04 22:51 | 32.68266 | 128.15042 | 32183 ft | 452 kts | 248° |
| 2026-05-04 22:51 | 32.65819 | 128.08183 | 32182 ft | 453 kts | 248° |
| 2026-05-04 22:52 | 32.63366 | 128.01326 | 32182 ft | 452 kts | 248° |
| 2026-05-04 22:52 | 32.60913 | 127.94479 | 32182 ft | 452 kts | 248° |
| 2026-05-04 22:53 | 32.58449 | 127.87616 | 32181 ft | 452 kts | 248° |
| 2026-05-04 22:53 | 32.55996 | 127.80799 | 32181 ft | 452 kts | 248° |
| 2026-05-04 22:54 | 32.53539 | 127.73985 | 32181 ft | 452 kts | 248° |
| 2026-05-04 22:54 | 32.51059 | 127.67121 | 32180 ft | 452 kts | 248° |
| 2026-05-04 22:55 | 32.48595 | 127.60313 | 32180 ft | 452 kts | 248° |
| 2026-05-04 22:55 | 32.46129 | 127.53516 | 32179 ft | 452 kts | 248° |
| 2026-05-04 22:56 | 32.43639 | 127.46666 | 32179 ft | 452 kts | 248° |
| 2026-05-04 22:56 | 32.41174 | 127.39899 | 32178 ft | 452 kts | 248° |
| 2026-05-04 22:57 | 32.38681 | 127.33068 | 32183 ft | 452 kts | 248° |
| 2026-05-04 22:57 | 32.36187 | 127.26249 | 32183 ft | 452 kts | 248° |
| 2026-05-04 22:58 | 32.33687 | 127.19427 | 32183 ft | 452 kts | 248° |
| 2026-05-04 22:58 | 32.31200 | 127.12655 | 32183 ft | 451 kts | 248° |
| 2026-05-04 22:59 | 32.28703 | 127.05861 | 32182 ft | 450 kts | 249° |
| 2026-05-04 22:59 | 32.26900 | 126.98830 | 32183 ft | 448 kts | 256° |
| 2026-05-04 23:00 | 32.25324 | 126.91726 | 32182 ft | 448 kts | 256° |
| 2026-05-04 23:00 | 32.23757 | 126.84645 | 32182 ft | 448 kts | 256° |
| 2026-05-04 23:01 | 32.22185 | 126.77548 | 32180 ft | 447 kts | 256° |
| 2026-05-04 23:01 | 32.20612 | 126.70459 | 32180 ft | 447 kts | 256° |
| 2026-05-04 23:02 | 32.19056 | 126.63404 | 32180 ft | 448 kts | 257° |
| 2026-05-04 23:02 | 32.17525 | 126.56299 | 32180 ft | 447 kts | 256° |
| 2026-05-04 23:03 | 32.15983 | 126.49174 | 32179 ft | 447 kts | 256° |
| 2026-05-04 23:03 | 32.14444 | 126.42082 | 32178 ft | 448 kts | 256° |
| 2026-05-04 23:04 | 32.12905 | 126.35010 | 32178 ft | 448 kts | 256° |
| 2026-05-04 23:04 | 32.11346 | 126.27869 | 32184 ft | 448 kts | 256° |
| 2026-05-04 23:05 | 32.09804 | 126.20828 | 32184 ft | 447 kts | 256° |
| 2026-05-04 23:05 | 32.08247 | 126.13736 | 32183 ft | 448 kts | 256° |
| 2026-05-04 23:06 | 32.06689 | 126.06659 | 32182 ft | 447 kts | 256° |
| 2026-05-04 23:06 | 32.05194 | 125.99709 | 32182 ft | 447 kts | 256° |
| 2026-05-04 23:07 | 32.03667 | 125.92598 | 32181 ft | 448 kts | 256° |
| 2026-05-04 23:07 | 32.02135 | 125.85487 | 32181 ft | 447 kts | 256° |
| 2026-05-04 23:08 | 32.00606 | 125.78410 | 32180 ft | 447 kts | 256° |
| 2026-05-04 23:08 | 31.99051 | 125.71381 | 32180 ft | 447 kts | 256° |
| 2026-05-04 23:09 | 31.97480 | 125.64305 | 32179 ft | 448 kts | 256° |
| 2026-05-04 23:09 | 31.95904 | 125.57225 | 32179 ft | 447 kts | 256° |
| 2026-05-04 23:10 | 31.94331 | 125.50176 | 32179 ft | 448 kts | 256° |
| 2026-05-04 23:10 | 31.92746 | 125.43095 | 32178 ft | 448 kts | 256° |
| 2026-05-04 23:11 | 31.91157 | 125.36020 | 32178 ft | 447 kts | 256° |
| 2026-05-04 23:11 | 31.89566 | 125.28954 | 32184 ft | 448 kts | 256° |
| 2026-05-04 23:12 | 31.87972 | 125.21893 | 32183 ft | 447 kts | 256° |
| 2026-05-04 23:12 | 31.86370 | 125.14819 | 32183 ft | 448 kts | 256° |
| 2026-05-04 23:13 | 31.84766 | 125.07752 | 32182 ft | 448 kts | 256° |
| 2026-05-04 23:13 | 31.83158 | 125.00687 | 32182 ft | 447 kts | 256° |
| 2026-05-04 23:14 | 31.81631 | 124.93658 | 32182 ft | 447 kts | 256° |
| 2026-05-04 23:14 | 31.80110 | 124.86628 | 32181 ft | 446 kts | 256° |
| 2026-05-04 23:15 | 31.78573 | 124.79546 | 32181 ft | 445 kts | 256° |
| 2026-05-04 23:15 | 31.77047 | 124.72535 | 32181 ft | 445 kts | 256° |
| 2026-05-04 23:16 | 31.75512 | 124.65507 | 32180 ft | 445 kts | 256° |
| 2026-05-04 23:16 | 31.73982 | 124.58517 | 32179 ft | 444 kts | 256° |
| 2026-05-04 23:17 | 31.72434 | 124.51469 | 32168 ft | 446 kts | 256° |
| 2026-05-04 23:17 | 31.70888 | 124.44447 | 32135 ft | 445 kts | 256° |
| 2026-05-04 23:18 | 31.69342 | 124.37449 | 32103 ft | 445 kts | 256° |
| 2026-05-04 23:18 | 31.67780 | 124.30389 | 32079 ft | 446 kts | 255° |
| 2026-05-04 23:19 | 31.66219 | 124.23362 | 32075 ft | 445 kts | 255° |
| 2026-05-04 23:19 | 31.64665 | 124.16380 | 32075 ft | 445 kts | 255° |
| 2026-05-04 23:20 | 31.63090 | 124.09328 | 32075 ft | 446 kts | 255° |
| 2026-05-04 23:20 | 31.61519 | 124.02313 | 32074 ft | 446 kts | 255° |
| 2026-05-04 23:21 | 31.59984 | 123.95342 | 32074 ft | 446 kts | 256° |
| 2026-05-04 23:21 | 31.58441 | 123.88275 | 32073 ft | 445 kts | 256° |
| 2026-05-04 23:22 | 31.56908 | 123.81280 | 32073 ft | 445 kts | 256° |
| 2026-05-04 23:22 | 31.55364 | 123.74256 | 32072 ft | 445 kts | 256° |
| 2026-05-04 23:23 | 31.53819 | 123.67244 | 32072 ft | 445 kts | 256° |
| 2026-05-04 23:23 | 31.52272 | 123.60243 | 32071 ft | 445 kts | 256° |
| 2026-05-04 23:24 | 31.50717 | 123.53226 | 32071 ft | 446 kts | 256° |
| 2026-05-04 23:24 | 31.49276 | 123.46211 | 32071 ft | 445 kts | 258° |
| 2026-05-04 23:25 | 31.47942 | 123.39139 | 32069 ft | 445 kts | 257° |
| 2026-05-04 23:25 | 31.46604 | 123.32095 | 32076 ft | 445 kts | 257° |
| 2026-05-04 23:26 | 31.45258 | 123.25030 | 32076 ft | 446 kts | 257° |
| 2026-05-04 23:26 | 31.43904 | 123.17952 | 32075 ft | 445 kts | 257° |
| 2026-05-04 23:27 | 31.42555 | 123.10921 | 32074 ft | 445 kts | 257° |
| 2026-05-04 23:27 | 31.41197 | 123.03862 | 32074 ft | 445 kts | 257° |
| 2026-05-04 23:28 | 31.39829 | 122.96780 | 32074 ft | 445 kts | 257° |
| 2026-05-04 23:28 | 31.38466 | 122.89742 | 32073 ft | 445 kts | 256° |
| 2026-05-04 23:29 | 31.37098 | 122.82700 | 32072 ft | 444 kts | 256° |
| 2026-05-04 23:29 | 31.35735 | 122.75673 | 32072 ft | 445 kts | 256° |
| 2026-05-04 23:30 | 31.34397 | 122.68638 | 32071 ft | 444 kts | 256° |
| 2026-05-04 23:30 | 31.33053 | 122.61599 | 32071 ft | 445 kts | 257° |
| 2026-05-04 23:31 | 31.31703 | 122.54553 | 32070 ft | 444 kts | 256° |
| 2026-05-04 23:31 | 31.30357 | 122.47548 | 32070 ft | 445 kts | 257° |
| 2026-05-04 23:32 | 31.29016 | 122.40500 | 32069 ft | 445 kts | 257° |
| 2026-05-04 23:32 | 31.27693 | 122.33469 | 32073 ft | 444 kts | 256° |
| 2026-05-04 23:33 | 31.26360 | 122.26408 | 32075 ft | 444 kts | 256° |
| 2026-05-04 23:33 | 31.25031 | 122.19399 | 32074 ft | 445 kts | 256° |
| 2026-05-04 23:34 | 31.23695 | 122.12369 | 32073 ft | 444 kts | 256° |
| 2026-05-04 23:34 | 31.22349 | 122.05306 | 32073 ft | 445 kts | 256° |
| 2026-05-04 23:35 | 31.21007 | 121.98290 | 32073 ft | 444 kts | 256° |
| 2026-05-04 23:35 | 31.19659 | 121.91261 | 32072 ft | 444 kts | 256° |
| 2026-05-04 23:36 | 31.18304 | 121.84222 | 32072 ft | 445 kts | 257° |
| 2026-05-04 23:36 | 31.17901 | 121.77076 | 32078 ft | 448 kts | 274° |
| 2026-05-04 23:37 | 31.19310 | 121.69949 | 32072 ft | 452 kts | 283° |
| 2026-05-04 23:37 | 31.21005 | 121.62939 | 32070 ft | 452 kts | 283° |
| 2026-05-04 23:38 | 31.22730 | 121.55880 | 32070 ft | 451 kts | 283° |
| 2026-05-04 23:38 | 31.24458 | 121.48837 | 32070 ft | 452 kts | 283° |
| 2026-05-04 23:39 | 31.26182 | 121.41799 | 32069 ft | 452 kts | 283° |
| 2026-05-04 23:39 | 31.27907 | 121.34749 | 32069 ft | 452 kts | 283° |
| 2026-05-04 23:40 | 31.29942 | 121.27799 | 32076 ft | 454 kts | 287° |
| 2026-05-04 23:40 | 31.32087 | 121.20920 | 32075 ft | 453 kts | 287° |
| 2026-05-04 23:41 | 31.34240 | 121.13987 | 32074 ft | 453 kts | 287° |
| 2026-05-04 23:41 | 31.36362 | 121.07076 | 32074 ft | 453 kts | 287° |
| 2026-05-04 23:42 | 31.38468 | 121.00147 | 32073 ft | 453 kts | 287° |
| 2026-05-04 23:42 | 31.40563 | 120.93237 | 32073 ft | 453 kts | 286° |
| 2026-05-04 23:43 | 31.42661 | 120.86302 | 32073 ft | 453 kts | 287° |
| 2026-05-04 23:43 | 31.44754 | 120.79369 | 32073 ft | 454 kts | 286° |
| 2026-05-04 23:44 | 31.46850 | 120.72409 | 32072 ft | 453 kts | 287° |
| 2026-05-04 23:44 | 31.48941 | 120.65454 | 32071 ft | 453 kts | 286° |
| 2026-05-04 23:45 | 31.51016 | 120.58533 | 32071 ft | 453 kts | 287° |
| 2026-05-04 23:45 | 31.53110 | 120.51533 | 32071 ft | 453 kts | 286° |
| 2026-05-04 23:46 | 31.55175 | 120.44615 | 32070 ft | 453 kts | 286° |
| 2026-05-04 23:46 | 31.57250 | 120.37648 | 32070 ft | 454 kts | 286° |
| 2026-05-04 23:47 | 31.58872 | 120.30547 | 32083 ft | 448 kts | 274° |
| 2026-05-04 23:47 | 31.59324 | 120.23329 | 32075 ft | 447 kts | 271° |
| 2026-05-04 23:48 | 31.59714 | 120.16048 | 32068 ft | 447 kts | 271° |
| 2026-05-04 23:48 | 31.60080 | 120.08781 | 32060 ft | 447 kts | 271° |
| 2026-05-04 23:49 | 31.60434 | 120.01528 | 32052 ft | 447 kts | 271° |
| 2026-05-04 23:49 | 31.60780 | 119.94274 | 32047 ft | 447 kts | 271° |
| 2026-05-04 23:50 | 31.61123 | 119.87000 | 32047 ft | 447 kts | 271° |
| 2026-05-04 23:50 | 31.61461 | 119.79735 | 32046 ft | 447 kts | 271° |
| 2026-05-04 23:51 | 31.61794 | 119.72477 | 32045 ft | 446 kts | 271° |
| 2026-05-04 23:51 | 31.62129 | 119.65222 | 32045 ft | 447 kts | 271° |
| 2026-05-04 23:52 | 31.62483 | 119.57974 | 32044 ft | 447 kts | 271° |
| 2026-05-04 23:52 | 31.62831 | 119.50721 | 32044 ft | 447 kts | 271° |
| 2026-05-04 23:53 | 31.63178 | 119.43421 | 32044 ft | 447 kts | 271° |
| 2026-05-04 23:53 | 31.63517 | 119.36173 | 32043 ft | 447 kts | 271° |
| 2026-05-04 23:54 | 31.63848 | 119.28921 | 32050 ft | 446 kts | 271° |
| 2026-05-04 23:54 | 31.64175 | 119.21690 | 32049 ft | 447 kts | 271° |
| 2026-05-04 23:55 | 31.64501 | 119.14418 | 32048 ft | 446 kts | 271° |
| 2026-05-04 23:56 | 31.65064 | 119.03515 | 32048 ft | 447 kts | 272° |
| 2026-05-04 23:56 | 31.65610 | 118.96281 | 32046 ft | 447 kts | 272° |
| 2026-05-04 23:57 | 31.66156 | 118.89050 | 32047 ft | 446 kts | 272° |
| 2026-05-04 23:57 | 31.66698 | 118.81805 | 32044 ft | 446 kts | 272° |
| 2026-05-04 23:58 | 31.67235 | 118.74564 | 32043 ft | 446 kts | 272° |
| 2026-05-04 23:58 | 31.67764 | 118.67364 | 32044 ft | 446 kts | 272° |
| 2026-05-04 23:59 | 31.68291 | 118.60138 | 32045 ft | 445 kts | 272° |
| 2026-05-04 23:59 | 31.68817 | 118.52891 | 32043 ft | 446 kts | 272° |
| 2026-05-05 00:00 | 31.69336 | 118.45650 | 32045 ft | 446 kts | 272° |
| 2026-05-05 00:00 | 31.69852 | 118.38412 | 32043 ft | 446 kts | 272° |
| 2026-05-05 00:01 | 31.70365 | 118.31155 | 32051 ft | 447 kts | 272° |
| 2026-05-05 00:01 | 31.70873 | 118.23914 | 32053 ft | 445 kts | 272° |
| 2026-05-05 00:02 | 31.71374 | 118.16702 | 32049 ft | 445 kts | 272° |
| 2026-05-05 00:02 | 31.71878 | 118.09454 | 32049 ft | 445 kts | 272° |
| 2026-05-05 00:03 | 31.72414 | 118.02196 | 32044 ft | 446 kts | 272° |
| 2026-05-05 00:03 | 31.72945 | 117.94961 | 32032 ft | 445 kts | 272° |
| 2026-05-05 00:04 | 31.73468 | 117.87739 | 32028 ft | 446 kts | 272° |
| 2026-05-05 00:04 | 31.73989 | 117.80505 | 32020 ft | 446 kts | 272° |
| 2026-05-05 00:05 | 31.74508 | 117.73247 | 32021 ft | 447 kts | 272° |
| 2026-05-05 00:05 | 31.75022 | 117.65997 | 32020 ft | 445 kts | 272° |
| 2026-05-05 00:06 | 31.75530 | 117.58766 | 32019 ft | 446 kts | 272° |
| 2026-05-05 00:06 | 31.76034 | 117.51540 | 32019 ft | 446 kts | 272° |
| 2026-05-05 00:07 | 31.76535 | 117.44294 | 32015 ft | 446 kts | 272° |
| 2026-05-05 00:07 | 31.77033 | 117.37038 | 32016 ft | 446 kts | 272° |
| 2026-05-05 00:08 | 31.76937 | 117.29818 | 32032 ft | 441 kts | 257° |
| 2026-05-05 00:08 | 31.75180 | 117.22958 | 32023 ft | 440 kts | 250° |
| 2026-05-05 00:09 | 31.73154 | 117.16184 | 32023 ft | 439 kts | 249° |
| 2026-05-05 00:09 | 31.71108 | 117.09482 | 32022 ft | 439 kts | 249° |
| 2026-05-05 00:10 | 31.69036 | 117.02764 | 32021 ft | 440 kts | 250° |
| 2026-05-05 00:10 | 31.66922 | 116.96027 | 32019 ft | 440 kts | 250° |
| 2026-05-05 00:11 | 31.64797 | 116.89310 | 32020 ft | 441 kts | 250° |
| 2026-05-05 00:11 | 31.62667 | 116.82589 | 32018 ft | 442 kts | 250° |
| 2026-05-05 00:12 | 31.60528 | 116.75857 | 32019 ft | 441 kts | 250° |
| 2026-05-05 00:12 | 31.58380 | 116.69112 | 32018 ft | 441 kts | 250° |
| 2026-05-05 00:13 | 31.56235 | 116.62392 | 32017 ft | 441 kts | 250° |
| 2026-05-05 00:13 | 31.54087 | 116.55678 | 32016 ft | 441 kts | 250° |
| 2026-05-05 00:14 | 31.51937 | 116.48971 | 32017 ft | 442 kts | 250° |
| 2026-05-05 00:14 | 31.49771 | 116.42228 | 32016 ft | 442 kts | 250° |
| 2026-05-05 00:15 | 31.47614 | 116.35527 | 32016 ft | 441 kts | 250° |
| 2026-05-05 00:15 | 31.45453 | 116.28828 | 32023 ft | 441 kts | 249° |
| 2026-05-05 00:16 | 31.43293 | 116.22145 | 32022 ft | 441 kts | 249° |
| 2026-05-05 00:16 | 31.41109 | 116.15402 | 32021 ft | 442 kts | 249° |
| 2026-05-05 00:17 | 31.38936 | 116.08707 | 32019 ft | 442 kts | 249° |
| 2026-05-05 00:17 | 31.36753 | 116.01997 | 32019 ft | 442 kts | 249° |
| 2026-05-05 00:18 | 31.34584 | 115.95339 | 32019 ft | 442 kts | 249° |
| 2026-05-05 00:18 | 31.32396 | 115.88640 | 32018 ft | 442 kts | 250° |
| 2026-05-05 00:19 | 31.30241 | 115.81895 | 32018 ft | 441 kts | 250° |
| 2026-05-05 00:19 | 31.28102 | 115.75204 | 32018 ft | 441 kts | 250° |
| 2026-05-05 00:20 | 31.25968 | 115.68545 | 32018 ft | 441 kts | 250° |
| 2026-05-05 00:20 | 31.23818 | 115.61847 | 32012 ft | 441 kts | 250° |
| 2026-05-05 00:21 | 31.21656 | 115.55128 | 32004 ft | 441 kts | 250° |
| 2026-05-05 00:21 | 31.19503 | 115.48450 | 31994 ft | 441 kts | 250° |
| 2026-05-05 00:22 | 31.17343 | 115.41766 | 31988 ft | 441 kts | 250° |
| 2026-05-05 00:22 | 31.15187 | 115.35108 | 31986 ft | 441 kts | 250° |
| 2026-05-05 00:23 | 31.13023 | 115.28436 | 31993 ft | 441 kts | 249° |
| 2026-05-05 00:23 | 31.10895 | 115.21703 | 31993 ft | 440 kts | 250° |
| 2026-05-05 00:24 | 31.08775 | 115.15041 | 31992 ft | 441 kts | 250° |
| 2026-05-05 00:24 | 31.06642 | 115.08352 | 31992 ft | 440 kts | 250° |
| 2026-05-05 00:25 | 31.04512 | 115.01688 | 31994 ft | 440 kts | 250° |
| 2026-05-05 00:25 | 31.02375 | 114.95013 | 31994 ft | 442 kts | 250° |
| 2026-05-05 00:26 | 31.00213 | 114.88277 | 31991 ft | 444 kts | 250° |
| 2026-05-05 00:26 | 30.98061 | 114.81587 | 31989 ft | 445 kts | 250° |
| 2026-05-05 00:27 | 30.95882 | 114.74827 | 31993 ft | 447 kts | 250° |
| 2026-05-05 00:27 | 30.93695 | 114.68057 | 31989 ft | 448 kts | 250° |
| 2026-05-05 00:28 | 30.91495 | 114.61259 | 31988 ft | 451 kts | 250° |
| 2026-05-05 00:28 | 30.89277 | 114.54421 | 31990 ft | 452 kts | 250° |
| 2026-05-05 00:29 | 30.87048 | 114.47568 | 31990 ft | 454 kts | 250° |
| 2026-05-05 00:29 | 30.84839 | 114.40723 | 31988 ft | 453 kts | 250° |
| 2026-05-05 00:30 | 30.82624 | 114.33856 | 31993 ft | 452 kts | 250° |
| 2026-05-05 00:30 | 30.80406 | 114.27042 | 31995 ft | 453 kts | 249° |
| 2026-05-05 00:31 | 30.78002 | 114.20303 | 31998 ft | 453 kts | 242° |
| 2026-05-05 00:31 | 30.74692 | 114.14075 | 31994 ft | 454 kts | 238° |
| 2026-05-05 00:32 | 30.71307 | 114.07878 | 31993 ft | 454 kts | 238° |
| 2026-05-05 00:32 | 30.67922 | 114.01720 | 31992 ft | 454 kts | 238° |
| 2026-05-05 00:33 | 30.64528 | 113.95565 | 31994 ft | 454 kts | 238° |
| 2026-05-05 00:33 | 30.61140 | 113.89430 | 31992 ft | 454 kts | 238° |
| 2026-05-05 00:34 | 30.58419 | 113.82861 | 31999 ft | 453 kts | 254° |
| 2026-05-05 00:34 | 30.57555 | 113.75697 | 31995 ft | 452 kts | 266° |
| 2026-05-05 00:35 | 30.57220 | 113.68410 | 31993 ft | 452 kts | 267° |
| 2026-05-05 00:35 | 30.56920 | 113.61114 | 31991 ft | 453 kts | 267° |
| 2026-05-05 00:36 | 30.56634 | 113.53860 | 31988 ft | 452 kts | 267° |
| 2026-05-05 00:36 | 30.56349 | 113.46592 | 31992 ft | 452 kts | 267° |
| 2026-05-05 00:37 | 30.56064 | 113.39348 | 31991 ft | 452 kts | 267° |
| 2026-05-05 00:37 | 30.55771 | 113.32028 | 31996 ft | 452 kts | 266° |
| 2026-05-05 00:38 | 30.55478 | 113.24756 | 31995 ft | 452 kts | 267° |
| 2026-05-05 00:38 | 30.55182 | 113.17517 | 31994 ft | 453 kts | 267° |
| 2026-05-05 00:39 | 30.54881 | 113.10212 | 31994 ft | 452 kts | 267° |
| 2026-05-05 00:39 | 30.54578 | 113.02969 | 31994 ft | 452 kts | 267° |
| 2026-05-05 00:40 | 30.54271 | 112.95686 | 31992 ft | 452 kts | 267° |
| 2026-05-05 00:40 | 30.53962 | 112.88465 | 31991 ft | 452 kts | 267° |
| 2026-05-05 00:41 | 30.53646 | 112.81176 | 31990 ft | 451 kts | 267° |
| 2026-05-05 00:41 | 30.53328 | 112.73930 | 31991 ft | 451 kts | 267° |
| 2026-05-05 00:42 | 30.53006 | 112.66690 | 31993 ft | 451 kts | 267° |
| 2026-05-05 00:42 | 30.52682 | 112.59486 | 31989 ft | 451 kts | 267° |
| 2026-05-05 00:43 | 30.52350 | 112.52187 | 31990 ft | 451 kts | 267° |
| 2026-05-05 00:43 | 30.52016 | 112.44952 | 31990 ft | 451 kts | 267° |
| 2026-05-05 00:44 | 30.51680 | 112.37740 | 31989 ft | 452 kts | 267° |
| 2026-05-05 00:44 | 30.51335 | 112.30435 | 31996 ft | 451 kts | 266° |
| 2026-05-05 00:45 | 30.50990 | 112.23212 | 31993 ft | 451 kts | 266° |
| 2026-05-05 00:45 | 30.50639 | 112.15953 | 31990 ft | 451 kts | 266° |
| 2026-05-05 00:46 | 30.50286 | 112.08730 | 31993 ft | 451 kts | 266° |
| 2026-05-05 00:46 | 30.49928 | 112.01488 | 31991 ft | 451 kts | 266° |
| 2026-05-05 00:47 | 30.49566 | 111.94266 | 31992 ft | 451 kts | 266° |
| 2026-05-05 00:47 | 30.49199 | 111.86988 | 31991 ft | 451 kts | 266° |
| 2026-05-05 00:48 | 30.48829 | 111.79748 | 31992 ft | 451 kts | 266° |
| 2026-05-05 00:48 | 30.48455 | 111.72519 | 31992 ft | 451 kts | 266° |
| 2026-05-05 00:49 | 30.48074 | 111.65309 | 31989 ft | 450 kts | 266° |
| 2026-05-05 00:49 | 30.47684 | 111.58046 | 31991 ft | 451 kts | 266° |
| 2026-05-05 00:50 | 30.47293 | 111.50825 | 31991 ft | 450 kts | 266° |
| 2026-05-05 00:50 | 30.46483 | 111.43639 | 31993 ft | 451 kts | 261° |
| 2026-05-05 00:51 | 30.45520 | 111.36517 | 31990 ft | 450 kts | 261° |
| 2026-05-05 00:51 | 30.44545 | 111.29334 | 32002 ft | 450 kts | 263° |
| 2026-05-05 00:52 | 30.44773 | 111.22124 | 32021 ft | 451 kts | 281° |
| 2026-05-05 00:52 | 30.46368 | 111.15138 | 32021 ft | 451 kts | 284° |
| 2026-05-05 00:53 | 30.48042 | 111.08156 | 32023 ft | 451 kts | 284° |
| 2026-05-05 00:53 | 30.49734 | 111.01176 | 32025 ft | 450 kts | 285° |
| 2026-05-05 00:54 | 30.51431 | 110.94196 | 32033 ft | 449 kts | 284° |
| 2026-05-05 00:54 | 30.53122 | 110.87230 | 32044 ft | 448 kts | 285° |
| 2026-05-05 00:55 | 30.54795 | 110.80324 | 32044 ft | 448 kts | 285° |
| 2026-05-05 00:55 | 30.56474 | 110.73380 | 32045 ft | 448 kts | 285° |
| 2026-05-05 00:56 | 30.58153 | 110.66416 | 32038 ft | 449 kts | 284° |
| 2026-05-05 00:56 | 30.59833 | 110.59436 | 32037 ft | 448 kts | 284° |
| 2026-05-05 00:57 | 30.61501 | 110.52483 | 32036 ft | 449 kts | 285° |
| 2026-05-05 00:57 | 30.63165 | 110.45530 | 32035 ft | 448 kts | 285° |
| 2026-05-05 00:58 | 30.64820 | 110.38598 | 32042 ft | 449 kts | 284° |
| 2026-05-05 00:58 | 30.66481 | 110.31624 | 32027 ft | 448 kts | 284° |
| 2026-05-05 00:59 | 30.68148 | 110.24605 | 32003 ft | 449 kts | 284° |
| 2026-05-05 00:59 | 30.69796 | 110.17648 | 31979 ft | 449 kts | 284° |
| 2026-05-05 01:00 | 30.71445 | 110.10669 | 31968 ft | 449 kts | 284° |
| 2026-05-05 01:00 | 30.73091 | 110.03681 | 31966 ft | 449 kts | 284° |
| 2026-05-05 01:01 | 30.74733 | 109.96695 | 31967 ft | 448 kts | 284° |
| 2026-05-05 01:01 | 30.76369 | 109.89716 | 31968 ft | 449 kts | 284° |
| 2026-05-05 01:02 | 30.77994 | 109.82767 | 31966 ft | 449 kts | 284° |
| 2026-05-05 01:02 | 30.79625 | 109.75771 | 31961 ft | 449 kts | 284° |
| 2026-05-05 01:03 | 30.81256 | 109.68759 | 31962 ft | 448 kts | 284° |
| 2026-05-05 01:03 | 30.82876 | 109.61771 | 31963 ft | 448 kts | 284° |
| 2026-05-05 01:04 | 30.84491 | 109.54783 | 31962 ft | 448 kts | 284° |
| 2026-05-05 01:04 | 30.86903 | 109.44305 | 31962 ft | 449 kts | 284° |
| 2026-05-05 01:05 | 30.88497 | 109.37318 | 31966 ft | 448 kts | 282° |
| 2026-05-05 01:05 | 30.89047 | 109.30157 | 31972 ft | 446 kts | 269° |
| 2026-05-05 01:06 | 30.89037 | 109.22965 | 31969 ft | 446 kts | 269° |
| 2026-05-05 01:06 | 30.89001 | 109.15740 | 31967 ft | 445 kts | 269° |
| 2026-05-05 01:07 | 30.88951 | 109.08603 | 31967 ft | 443 kts | 269° |
| 2026-05-05 01:07 | 30.88894 | 109.01457 | 31966 ft | 442 kts | 269° |
| 2026-05-05 01:08 | 30.88830 | 108.94318 | 31966 ft | 440 kts | 268° |
| 2026-05-05 01:08 | 30.88762 | 108.87234 | 31966 ft | 441 kts | 268° |
| 2026-05-05 01:09 | 30.88690 | 108.80097 | 31965 ft | 441 kts | 268° |
| 2026-05-05 01:09 | 30.88615 | 108.72980 | 31965 ft | 441 kts | 268° |
| 2026-05-05 01:10 | 30.88535 | 108.65853 | 31964 ft | 441 kts | 268° |
| 2026-05-05 01:10 | 30.88452 | 108.58759 | 31964 ft | 441 kts | 268° |
| 2026-05-05 01:11 | 30.88365 | 108.51636 | 31964 ft | 441 kts | 268° |
| 2026-05-05 01:11 | 30.88273 | 108.44514 | 31963 ft | 441 kts | 268° |
| 2026-05-05 01:12 | 30.88178 | 108.37363 | 31962 ft | 441 kts | 268° |
| 2026-05-05 01:12 | 30.88079 | 108.30250 | 31969 ft | 441 kts | 268° |
| 2026-05-05 01:13 | 30.87976 | 108.23113 | 31968 ft | 441 kts | 268° |
| 2026-05-05 01:13 | 30.87869 | 108.15981 | 31968 ft | 441 kts | 268° |
| 2026-05-05 01:14 | 30.87759 | 108.08879 | 31967 ft | 441 kts | 268° |
| 2026-05-05 01:14 | 30.87643 | 108.01689 | 31967 ft | 441 kts | 268° |
| 2026-05-05 01:15 | 30.87524 | 107.94547 | 31966 ft | 441 kts | 268° |
| 2026-05-05 01:15 | 30.87401 | 107.87406 | 31966 ft | 441 kts | 268° |
| 2026-05-05 01:16 | 30.87276 | 107.80298 | 31965 ft | 441 kts | 268° |
| 2026-05-05 01:16 | 30.87147 | 107.73160 | 31964 ft | 441 kts | 268° |
| 2026-05-05 01:17 | 30.87016 | 107.66080 | 31964 ft | 441 kts | 268° |
| 2026-05-05 01:17 | 30.86879 | 107.58924 | 31964 ft | 441 kts | 268° |
| 2026-05-05 01:18 | 30.86739 | 107.51817 | 31963 ft | 441 kts | 268° |
| 2026-05-05 01:18 | 30.86596 | 107.44691 | 31963 ft | 441 kts | 268° |
| 2026-05-05 01:19 | 30.86427 | 107.37534 | 31963 ft | 441 kts | 267° |
| 2026-05-05 01:19 | 30.86117 | 107.30434 | 31969 ft | 441 kts | 266° |
| 2026-05-05 01:20 | 30.85804 | 107.23300 | 31968 ft | 440 kts | 266° |
| 2026-05-05 01:20 | 30.85489 | 107.16181 | 31968 ft | 441 kts | 266° |
| 2026-05-05 01:21 | 30.85184 | 107.09377 | 31967 ft | 441 kts | 266° |
| 2026-05-05 01:21 | 30.84862 | 107.02258 | 31966 ft | 441 kts | 266° |
| 2026-05-05 01:22 | 30.84534 | 106.95100 | 31967 ft | 440 kts | 266° |
| 2026-05-05 01:22 | 30.84205 | 106.88020 | 31966 ft | 440 kts | 266° |
| 2026-05-05 01:23 | 30.83870 | 106.80879 | 31962 ft | 438 kts | 265° |
| 2026-05-05 01:23 | 30.83533 | 106.73794 | 31965 ft | 439 kts | 265° |
| 2026-05-05 01:24 | 30.83191 | 106.66691 | 31965 ft | 439 kts | 266° |
| 2026-05-05 01:24 | 30.82847 | 106.59611 | 31966 ft | 439 kts | 266° |
| 2026-05-05 01:25 | 30.82496 | 106.52484 | 31962 ft | 438 kts | 265° |
| 2026-05-05 01:25 | 30.81966 | 106.45469 | 31967 ft | 437 kts | 259° |
| 2026-05-05 01:26 | 30.80737 | 106.38506 | 31963 ft | 437 kts | 258° |
| 2026-05-05 01:26 | 30.79495 | 106.31588 | 31971 ft | 437 kts | 257° |
| 2026-05-05 01:27 | 30.78229 | 106.24614 | 31969 ft | 437 kts | 257° |
| 2026-05-05 01:27 | 30.76962 | 106.17675 | 31968 ft | 437 kts | 257° |
| 2026-05-05 01:28 | 30.75697 | 106.10784 | 31968 ft | 437 kts | 257° |
| 2026-05-05 01:28 | 30.74423 | 106.03857 | 31968 ft | 437 kts | 257° |
| 2026-05-05 01:29 | 30.73382 | 105.96936 | 31965 ft | 437 kts | 260° |
| 2026-05-05 01:29 | 30.72402 | 105.89947 | 31965 ft | 437 kts | 260° |
| 2026-05-05 01:30 | 30.71419 | 105.82976 | 31966 ft | 437 kts | 260° |
| 2026-05-05 01:30 | 30.70432 | 105.76019 | 31958 ft | 437 kts | 260° |
| 2026-05-05 01:31 | 30.69439 | 105.69055 | 31948 ft | 438 kts | 260° |
| 2026-05-05 01:31 | 30.68438 | 105.62060 | 31940 ft | 437 kts | 260° |
| 2026-05-05 01:32 | 30.67433 | 105.55069 | 31935 ft | 437 kts | 260° |
| 2026-05-05 01:32 | 30.66429 | 105.48103 | 31936 ft | 437 kts | 260° |
| 2026-05-05 01:33 | 30.65414 | 105.41096 | 31936 ft | 438 kts | 260° |
| 2026-05-05 01:33 | 30.64663 | 105.34100 | 31941 ft | 437 kts | 266° |
| 2026-05-05 01:34 | 30.64346 | 105.27053 | 31943 ft | 438 kts | 265° |
| 2026-05-05 01:34 | 30.64027 | 105.20007 | 31943 ft | 438 kts | 265° |
| 2026-05-05 01:35 | 30.63710 | 105.12990 | 31938 ft | 437 kts | 265° |
| 2026-05-05 01:35 | 30.63388 | 105.05921 | 31939 ft | 438 kts | 265° |
| 2026-05-05 01:36 | 30.63063 | 104.98858 | 31937 ft | 438 kts | 265° |
| 2026-05-05 01:36 | 30.62732 | 104.91805 | 31941 ft | 438 kts | 267° |
| 2026-05-05 01:37 | 30.62400 | 104.84808 | 31934 ft | 432 kts | 267° |
| 2026-05-05 01:37 | 30.62071 | 104.77830 | 31937 ft | 434 kts | 266° |
| 2026-05-05 01:38 | 30.61734 | 104.70845 | 31937 ft | 433 kts | 266° |
| 2026-05-05 01:38 | 30.61398 | 104.63917 | 31936 ft | 433 kts | 267° |
| 2026-05-05 01:39 | 30.61055 | 104.56953 | 31935 ft | 433 kts | 266° |
| 2026-05-05 01:39 | 30.60554 | 104.50015 | 31936 ft | 433 kts | 259° |
| 2026-05-05 01:40 | 30.58722 | 104.43388 | 31937 ft | 434 kts | 251° |
| 2026-05-05 01:40 | 30.56625 | 104.36807 | 31931 ft | 434 kts | 251° |
| 2026-05-05 01:41 | 30.54511 | 104.30267 | 31941 ft | 434 kts | 250° |
| 2026-05-05 01:41 | 30.52394 | 104.23764 | 31939 ft | 434 kts | 250° |
| 2026-05-05 01:42 | 30.50085 | 104.17292 | 31943 ft | 435 kts | 245° |
| 2026-05-05 01:42 | 30.47459 | 104.11008 | 31939 ft | 434 kts | 246° |
| 2026-05-05 01:43 | 30.44853 | 104.04735 | 31941 ft | 434 kts | 246° |
| 2026-05-05 01:43 | 30.42228 | 103.98415 | 31939 ft | 434 kts | 246° |
| 2026-05-05 01:44 | 30.39622 | 103.92149 | 31939 ft | 435 kts | 246° |
| 2026-05-05 01:44 | 30.36995 | 103.85844 | 31939 ft | 434 kts | 246° |
| 2026-05-05 01:45 | 30.34383 | 103.79583 | 31937 ft | 435 kts | 246° |
| 2026-05-05 01:45 | 30.31756 | 103.73293 | 31937 ft | 434 kts | 246° |
| 2026-05-05 01:46 | 30.30050 | 103.66658 | 31944 ft | 432 kts | 263° |
| 2026-05-05 01:46 | 30.29448 | 103.59752 | 31936 ft | 432 kts | 265° |
| 2026-05-05 01:47 | 30.28884 | 103.52893 | 31936 ft | 431 kts | 265° |
| 2026-05-05 01:47 | 30.28328 | 103.45988 | 31936 ft | 432 kts | 265° |
| 2026-05-05 01:48 | 30.27773 | 103.39062 | 31933 ft | 432 kts | 265° |
| 2026-05-05 01:48 | 30.27218 | 103.32169 | 31942 ft | 433 kts | 264° |
| 2026-05-05 01:49 | 30.26650 | 103.25261 | 31939 ft | 432 kts | 264° |
| 2026-05-05 01:49 | 30.26077 | 103.18372 | 31939 ft | 431 kts | 264° |
| 2026-05-05 01:50 | 30.25499 | 103.11488 | 31939 ft | 431 kts | 264° |
| 2026-05-05 01:50 | 30.24921 | 103.04602 | 31936 ft | 430 kts | 262° |
| 2026-05-05 01:51 | 30.24339 | 102.97720 | 31939 ft | 434 kts | 262° |
| 2026-05-05 01:51 | 30.23750 | 102.90814 | 31935 ft | 433 kts | 262° |
| 2026-05-05 01:52 | 30.23195 | 102.83891 | 31935 ft | 433 kts | 262° |
| 2026-05-05 01:52 | 30.22636 | 102.76957 | 31936 ft | 433 kts | 262° |
| 2026-05-05 01:53 | 30.22074 | 102.70037 | 31935 ft | 433 kts | 262° |
| 2026-05-05 01:53 | 30.21508 | 102.63113 | 31934 ft | 433 kts | 262° |
| 2026-05-05 01:54 | 30.20940 | 102.56216 | 31932 ft | 433 kts | 262° |
| 2026-05-05 01:54 | 30.20368 | 102.49303 | 31935 ft | 433 kts | 262° |
| 2026-05-05 01:55 | 30.19803 | 102.42387 | 31932 ft | 433 kts | 263° |
| 2026-05-05 01:55 | 30.19257 | 102.35468 | 31932 ft | 433 kts | 262° |
| 2026-05-05 01:56 | 30.18702 | 102.28490 | 31939 ft | 433 kts | 262° |
| 2026-05-05 01:56 | 30.18152 | 102.21622 | 31938 ft | 433 kts | 262° |
| 2026-05-05 01:57 | 30.17591 | 102.14667 | 31938 ft | 433 kts | 262° |
| 2026-05-05 01:57 | 30.17032 | 102.07784 | 31937 ft | 433 kts | 262° |
| 2026-05-05 01:58 | 30.16466 | 102.00853 | 31937 ft | 433 kts | 262° |
| 2026-05-05 01:58 | 30.15898 | 101.93947 | 31938 ft | 433 kts | 262° |
| 2026-05-05 01:59 | 30.15324 | 101.87015 | 31936 ft | 437 kts | 262° |
| 2026-05-05 01:59 | 30.14735 | 101.79956 | 32295 ft | 445 kts | 262° |
| 2026-05-05 02:00 | 30.14440 | 101.76432 | 32918 ft | 439 kts | 263° |
| 2026-05-05 02:00 | 30.14287 | 101.72953 | 33398 ft | 437 kts | 269° |
| 2026-05-05 02:00 | 30.14519 | 101.69418 | 33774 ft | 438 kts | 273° |
| 2026-05-05 02:00 | 30.14807 | 101.65962 | 34214 ft | 434 kts | 273° |
| 2026-05-05 02:01 | 30.15093 | 101.62495 | 34597 ft | 433 kts | 273° |
| 2026-05-05 02:01 | 30.15379 | 101.59037 | 34890 ft | 433 kts | 274° |
| 2026-05-05 02:01 | 30.15667 | 101.55605 | 35227 ft | 431 kts | 273° |
| 2026-05-05 02:01 | 30.15953 | 101.52190 | 35521 ft | 430 kts | 273° |
| 2026-05-05 02:02 | 30.16244 | 101.48772 | 35746 ft | 430 kts | 274° |
| 2026-05-05 02:02 | 30.16539 | 101.45295 | 35950 ft | 430 kts | 273° |
| 2026-05-05 02:02 | 30.16825 | 101.41934 | 36026 ft | 418 kts | 274° |
| 2026-05-05 02:02 | 30.17108 | 101.38591 | 36035 ft | 421 kts | 273° |
| 2026-05-05 02:03 | 30.17677 | 101.31815 | 36234 ft | 423 kts | 273° |
| 2026-05-05 02:03 | 30.17960 | 101.28456 | 36396 ft | 424 kts | 273° |
| 2026-05-05 02:03 | 30.18242 | 101.25067 | 36391 ft | 428 kts | 273° |
| 2026-05-05 02:04 | 30.18811 | 101.18216 | 36389 ft | 428 kts | 273° |
| 2026-05-05 02:04 | 30.19379 | 101.11356 | 36391 ft | 429 kts | 273° |
| 2026-05-05 02:05 | 30.19941 | 101.04518 | 36390 ft | 429 kts | 273° |
| 2026-05-05 02:05 | 30.20498 | 100.97702 | 36391 ft | 427 kts | 273° |
| 2026-05-05 02:06 | 30.21052 | 100.90869 | 36391 ft | 425 kts | 273° |
| 2026-05-05 02:06 | 30.21599 | 100.84078 | 36390 ft | 423 kts | 273° |
| 2026-05-05 02:07 | 30.22137 | 100.77356 | 36388 ft | 422 kts | 273° |
| 2026-05-05 02:07 | 30.22673 | 100.70621 | 36385 ft | 423 kts | 273° |
| 2026-05-05 02:08 | 30.23205 | 100.63860 | 36388 ft | 423 kts | 273° |
| 2026-05-05 02:08 | 30.23735 | 100.57087 | 36384 ft | 422 kts | 273° |
| 2026-05-05 02:09 | 30.24258 | 100.50335 | 36384 ft | 422 kts | 273° |
| 2026-05-05 02:09 | 30.24780 | 100.43576 | 36381 ft | 423 kts | 273° |
| 2026-05-05 02:10 | 30.25299 | 100.36803 | 36388 ft | 422 kts | 273° |
| 2026-05-05 02:10 | 30.25812 | 100.30046 | 36395 ft | 422 kts | 273° |
| 2026-05-05 02:11 | 30.26323 | 100.23296 | 36396 ft | 422 kts | 272° |
| 2026-05-05 02:11 | 30.26831 | 100.16528 | 36390 ft | 421 kts | 272° |
| 2026-05-05 02:12 | 30.27582 | 100.06433 | 36393 ft | 423 kts | 272° |
| 2026-05-05 02:13 | 30.27565 | 99.99692 | 36396 ft | 419 kts | 259° |
| 2026-05-05 02:13 | 30.25939 | 99.93230 | 36388 ft | 420 kts | 252° |
| 2026-05-05 02:14 | 30.24082 | 99.86828 | 36388 ft | 419 kts | 251° |
| 2026-05-05 02:14 | 30.22196 | 99.80460 | 36390 ft | 419 kts | 251° |
| 2026-05-05 02:15 | 30.20306 | 99.74136 | 36385 ft | 419 kts | 251° |
| 2026-05-05 02:15 | 30.18387 | 99.67750 | 36386 ft | 419 kts | 251° |
| 2026-05-05 02:16 | 30.16476 | 99.61408 | 36385 ft | 419 kts | 251° |
| 2026-05-05 02:16 | 30.14557 | 99.55054 | 36385 ft | 419 kts | 251° |
| 2026-05-05 02:17 | 30.12642 | 99.48730 | 36383 ft | 419 kts | 251° |
| 2026-05-05 02:17 | 30.10721 | 99.42397 | 36383 ft | 419 kts | 251° |
| 2026-05-05 02:18 | 30.08787 | 99.36034 | 36381 ft | 419 kts | 251° |
| 2026-05-05 02:18 | 30.06850 | 99.29675 | 36391 ft | 420 kts | 251° |
| 2026-05-05 02:19 | 30.04919 | 99.23345 | 36390 ft | 420 kts | 251° |
| 2026-05-05 02:19 | 30.02980 | 99.17005 | 36392 ft | 419 kts | 251° |
| 2026-05-05 02:19 | 30.02007 | 99.13826 | 36091 ft | 423 kts | 251° |
| 2026-05-05 02:20 | 30.01097 | 99.10612 | 36072 ft | 416 kts | 256° |
| 2026-05-05 02:20 | 30.00228 | 99.03966 | 36081 ft | 420 kts | 261° |
| 2026-05-05 02:21 | 29.99497 | 98.97338 | 36083 ft | 419 kts | 262° |
| 2026-05-05 02:21 | 29.98776 | 98.90691 | 36088 ft | 419 kts | 262° |
| 2026-05-05 02:22 | 29.98051 | 98.84001 | 36086 ft | 418 kts | 262° |
| 2026-05-05 02:22 | 29.97330 | 98.77367 | 36089 ft | 419 kts | 262° |
| 2026-05-05 02:23 | 29.96606 | 98.70721 | 36088 ft | 418 kts | 262° |
| 2026-05-05 02:23 | 29.95881 | 98.64099 | 36086 ft | 418 kts | 262° |
| 2026-05-05 02:24 | 29.95149 | 98.57440 | 36085 ft | 419 kts | 262° |
| 2026-05-05 02:24 | 29.94413 | 98.50772 | 36085 ft | 418 kts | 262° |
| 2026-05-05 02:25 | 29.93673 | 98.44112 | 36082 ft | 419 kts | 262° |
| 2026-05-05 02:25 | 29.92937 | 98.37506 | 36083 ft | 418 kts | 262° |
| 2026-05-05 02:26 | 29.92189 | 98.30834 | 36095 ft | 419 kts | 261° |
| 2026-05-05 02:26 | 29.91441 | 98.24186 | 36094 ft | 418 kts | 261° |
| 2026-05-05 02:27 | 29.90688 | 98.17531 | 36092 ft | 418 kts | 261° |
| 2026-05-05 02:27 | 29.89957 | 98.11093 | 36092 ft | 419 kts | 261° |
| 2026-05-05 02:28 | 29.89196 | 98.04425 | 36095 ft | 417 kts | 261° |
| 2026-05-05 02:28 | 29.88436 | 97.97790 | 36092 ft | 418 kts | 261° |
| 2026-05-05 02:29 | 29.87670 | 97.91133 | 36092 ft | 418 kts | 261° |
| 2026-05-05 02:29 | 29.86904 | 97.84514 | 36093 ft | 418 kts | 261° |
| 2026-05-05 02:30 | 29.86138 | 97.77921 | 36093 ft | 418 kts | 261° |
| 2026-05-05 02:30 | 29.85356 | 97.71225 | 36091 ft | 419 kts | 261° |
| 2026-05-05 02:31 | 29.84576 | 97.64559 | 36091 ft | 418 kts | 261° |
| 2026-05-05 02:31 | 29.83800 | 97.57969 | 36089 ft | 419 kts | 261° |
| 2026-05-05 02:32 | 29.83171 | 97.52656 | 36090 ft | 418 kts | 261° |
| 2026-05-05 02:32 | 29.82382 | 97.46003 | 36086 ft | 418 kts | 261° |
| 2026-05-05 02:33 | 29.81592 | 97.39369 | 36087 ft | 418 kts | 261° |
| 2026-05-05 02:33 | 29.80813 | 97.32865 | 36096 ft | 418 kts | 261° |
| 2026-05-05 02:34 | 29.80013 | 97.26205 | 36094 ft | 418 kts | 261° |
| 2026-05-05 02:34 | 29.79217 | 97.19611 | 36098 ft | 418 kts | 261° |
| 2026-05-05 02:35 | 29.78414 | 97.12991 | 36093 ft | 418 kts | 261° |
| 2026-05-05 02:35 | 29.77608 | 97.06372 | 36096 ft | 419 kts | 261° |
| 2026-05-05 02:36 | 29.76793 | 96.99712 | 36095 ft | 420 kts | 262° |
| 2026-05-05 02:36 | 29.75978 | 96.93068 | 36095 ft | 421 kts | 262° |
| 2026-05-05 02:37 | 29.75161 | 96.86436 | 36092 ft | 419 kts | 262° |
| 2026-05-05 02:37 | 29.74337 | 96.79781 | 36090 ft | 420 kts | 262° |
| 2026-05-05 02:38 | 29.73582 | 96.73714 | 36090 ft | 420 kts | 262° |
| 2026-05-05 02:38 | 29.72914 | 96.68351 | 36087 ft | 420 kts | 262° |
| 2026-05-05 02:39 | 29.72080 | 96.61699 | 36086 ft | 420 kts | 262° |
| 2026-05-05 02:39 | 29.71250 | 96.55096 | 36083 ft | 420 kts | 262° |
| 2026-05-05 02:40 | 29.70412 | 96.48457 | 36087 ft | 420 kts | 262° |
| 2026-05-05 02:40 | 29.69569 | 96.41819 | 36086 ft | 420 kts | 262° |
| 2026-05-05 02:41 | 29.68721 | 96.35152 | 36085 ft | 420 kts | 262° |
| 2026-05-05 02:41 | 29.67912 | 96.28825 | 36096 ft | 420 kts | 261° |
| 2026-05-05 02:42 | 29.67064 | 96.22212 | 36096 ft | 420 kts | 261° |
| 2026-05-05 02:42 | 29.66212 | 96.15608 | 36093 ft | 420 kts | 261° |
| 2026-05-05 02:43 | 29.65353 | 96.08966 | 36096 ft | 419 kts | 262° |
| 2026-05-05 02:43 | 29.64490 | 96.02319 | 36091 ft | 421 kts | 261° |
| 2026-05-05 02:44 | 29.63629 | 95.95715 | 36091 ft | 420 kts | 261° |
| 2026-05-05 02:44 | 29.62766 | 95.89128 | 36081 ft | 405 kts | 261° |
| 2026-05-05 02:45 | 29.61924 | 95.82717 | 36094 ft | 413 kts | 262° |
| 2026-05-05 02:45 | 29.61058 | 95.76154 | 36086 ft | 420 kts | 261° |
| 2026-05-05 02:46 | 29.60178 | 95.69515 | 36092 ft | 420 kts | 261° |
| 2026-05-05 02:46 | 29.59298 | 95.62897 | 36087 ft | 420 kts | 261° |
| 2026-05-05 02:47 | 29.58410 | 95.56252 | 36089 ft | 420 kts | 261° |
| 2026-05-05 02:47 | 29.57524 | 95.49648 | 36093 ft | 420 kts | 261° |
| 2026-05-05 02:48 | 29.56629 | 95.43008 | 36084 ft | 421 kts | 261° |
| 2026-05-05 02:48 | 29.55734 | 95.36381 | 36087 ft | 420 kts | 261° |
| 2026-05-05 02:49 | 29.54881 | 95.30102 | 36097 ft | 421 kts | 261° |
| 2026-05-05 02:49 | 29.53981 | 95.23495 | 36095 ft | 420 kts | 261° |
| 2026-05-05 02:50 | 29.53077 | 95.16886 | 36094 ft | 421 kts | 261° |
| 2026-05-05 02:50 | 29.52162 | 95.10219 | 36096 ft | 421 kts | 261° |
| 2026-05-05 02:51 | 29.51250 | 95.03596 | 36092 ft | 420 kts | 261° |
| 2026-05-05 02:51 | 29.50341 | 94.97022 | 36091 ft | 419 kts | 261° |
| 2026-05-05 02:52 | 29.49423 | 94.90408 | 36092 ft | 418 kts | 260° |
| 2026-05-05 02:52 | 29.48514 | 94.83886 | 36091 ft | 416 kts | 260° |
| 2026-05-05 02:53 | 29.47596 | 94.77330 | 36088 ft | 415 kts | 260° |
| 2026-05-05 02:53 | 29.46680 | 94.70802 | 36270 ft | 417 kts | 260° |
| 2026-05-05 02:53 | 29.46215 | 94.67502 | 36540 ft | 416 kts | 260° |
| 2026-05-05 02:54 | 29.45756 | 94.64249 | 36753 ft | 415 kts | 260° |
| 2026-05-05 02:54 | 29.45292 | 94.60964 | 36923 ft | 415 kts | 260° |
| 2026-05-05 02:54 | 29.44835 | 94.57735 | 37073 ft | 416 kts | 260° |
| 2026-05-05 02:54 | 29.44367 | 94.54436 | 37230 ft | 416 kts | 260° |
| 2026-05-05 02:55 | 29.43907 | 94.51196 | 37371 ft | 416 kts | 260° |
| 2026-05-05 02:55 | 29.43417 | 94.47927 | 37515 ft | 415 kts | 257° |
| 2026-05-05 02:55 | 29.42574 | 94.44774 | 37635 ft | 415 kts | 248° |
| 2026-05-05 02:55 | 29.41346 | 94.41754 | 37746 ft | 416 kts | 245° |
| 2026-05-05 02:56 | 29.40089 | 94.38803 | 37842 ft | 416 kts | 245° |
| 2026-05-05 02:56 | 29.37688 | 94.33215 | 38046 ft | 412 kts | 244° |
| 2026-05-05 02:56 | 29.36444 | 94.30348 | 38089 ft | 400 kts | 244° |
| 2026-05-05 02:57 | 29.35214 | 94.27514 | 38096 ft | 401 kts | 244° |
| 2026-05-05 02:57 | 29.32715 | 94.21780 | 38095 ft | 405 kts | 244° |
| 2026-05-05 02:58 | 29.30188 | 94.16006 | 38092 ft | 408 kts | 244° |
| 2026-05-05 02:58 | 29.27624 | 94.10154 | 38096 ft | 411 kts | 244° |
| 2026-05-05 02:59 | 29.25064 | 94.04324 | 38094 ft | 414 kts | 244° |
| 2026-05-05 02:59 | 29.22471 | 93.98425 | 38091 ft | 415 kts | 244° |
| 2026-05-05 03:00 | 29.19889 | 93.92563 | 38091 ft | 416 kts | 244° |
| 2026-05-05 03:00 | 29.17292 | 93.86676 | 38089 ft | 415 kts | 244° |
| 2026-05-05 03:01 | 29.14685 | 93.80773 | 38088 ft | 416 kts | 244° |
| 2026-05-05 03:01 | 29.12084 | 93.74895 | 38089 ft | 416 kts | 244° |
| 2026-05-05 03:02 | 29.09484 | 93.69027 | 38085 ft | 416 kts | 244° |
| 2026-05-05 03:02 | 29.06867 | 93.63129 | 38087 ft | 418 kts | 244° |
| 2026-05-05 03:03 | 29.04236 | 93.57208 | 38085 ft | 420 kts | 244° |
| 2026-05-05 03:03 | 29.01580 | 93.51239 | 38086 ft | 421 kts | 244° |
| 2026-05-05 03:04 | 28.98924 | 93.45278 | 38086 ft | 423 kts | 244° |
| 2026-05-05 03:04 | 28.96244 | 93.39276 | 38085 ft | 425 kts | 244° |
| 2026-05-05 03:05 | 28.93729 | 93.33649 | 38091 ft | 426 kts | 243° |
| 2026-05-05 03:05 | 28.91020 | 93.27600 | 38093 ft | 426 kts | 243° |
| 2026-05-05 03:06 | 28.88576 | 93.22150 | 38096 ft | 426 kts | 243° |
| 2026-05-05 03:06 | 28.85866 | 93.16116 | 38096 ft | 426 kts | 243° |
| 2026-05-05 03:07 | 28.83172 | 93.10123 | 38095 ft | 426 kts | 244° |
| 2026-05-05 03:07 | 28.80462 | 93.04105 | 38094 ft | 427 kts | 244° |
| 2026-05-05 03:08 | 28.77744 | 92.98080 | 38094 ft | 429 kts | 244° |
| 2026-05-05 03:08 | 28.75011 | 92.92030 | 38093 ft | 430 kts | 244° |
| 2026-05-05 03:09 | 28.72275 | 92.85983 | 38093 ft | 431 kts | 244° |
| 2026-05-05 03:09 | 28.69523 | 92.79908 | 38092 ft | 430 kts | 244° |
| 2026-05-05 03:10 | 28.66773 | 92.73846 | 38091 ft | 431 kts | 244° |
| 2026-05-05 03:10 | 28.64029 | 92.67810 | 38090 ft | 431 kts | 244° |
| 2026-05-05 03:11 | 28.61298 | 92.61809 | 38090 ft | 430 kts | 244° |
| 2026-05-05 03:11 | 28.58544 | 92.55767 | 38089 ft | 431 kts | 244° |
| 2026-05-05 03:12 | 28.55781 | 92.49715 | 38089 ft | 431 kts | 244° |
| 2026-05-05 03:12 | 28.53034 | 92.43706 | 38088 ft | 430 kts | 244° |
| 2026-05-05 03:13 | 28.50268 | 92.37665 | 38088 ft | 430 kts | 244° |
| 2026-05-05 03:13 | 28.47601 | 92.31847 | 38096 ft | 431 kts | 243° |
| 2026-05-05 03:14 | 28.44843 | 92.25799 | 38095 ft | 430 kts | 246° |
| 2026-05-05 03:14 | 28.43257 | 92.19306 | 38104 ft | 430 kts | 264° |
| 2026-05-05 03:15 | 28.43265 | 92.12492 | 38094 ft | 431 kts | 270° |
| 2026-05-05 03:15 | 28.43406 | 92.05673 | 38093 ft | 431 kts | 270° |
| 2026-05-05 03:16 | 28.43556 | 91.98915 | 38092 ft | 431 kts | 270° |
| 2026-05-05 03:16 | 28.43709 | 91.92115 | 38092 ft | 431 kts | 270° |
| 2026-05-05 03:17 | 28.43860 | 91.85325 | 38091 ft | 431 kts | 270° |
| 2026-05-05 03:17 | 28.44009 | 91.78513 | 38090 ft | 431 kts | 270° |
| 2026-05-05 03:18 | 28.44155 | 91.71719 | 38090 ft | 431 kts | 270° |
| 2026-05-05 03:18 | 28.44297 | 91.64949 | 38103 ft | 431 kts | 270° |
| 2026-05-05 03:19 | 28.44504 | 91.54739 | 38229 ft | 431 kts | 270° |
| 2026-05-05 03:19 | 28.44638 | 91.47934 | 38313 ft | 431 kts | 270° |
| 2026-05-05 03:20 | 28.44768 | 91.41160 | 38384 ft | 432 kts | 270° |
| 2026-05-05 03:20 | 28.44888 | 91.34759 | 38384 ft | 432 kts | 270° |
| 2026-05-05 03:21 | 28.45015 | 91.27768 | 38392 ft | 431 kts | 270° |
| 2026-05-05 03:21 | 28.45137 | 91.20931 | 38392 ft | 431 kts | 270° |
| 2026-05-05 03:22 | 28.45253 | 91.14179 | 38391 ft | 431 kts | 270° |
| 2026-05-05 03:22 | 28.45367 | 91.07352 | 38391 ft | 431 kts | 270° |
| 2026-05-05 03:23 | 28.45478 | 91.00560 | 38390 ft | 431 kts | 270° |
| 2026-05-05 03:23 | 28.45585 | 90.93765 | 38389 ft | 431 kts | 269° |
| 2026-05-05 03:24 | 28.45688 | 90.86964 | 38389 ft | 431 kts | 269° |
| 2026-05-05 03:24 | 28.45789 | 90.80148 | 38388 ft | 431 kts | 269° |
| 2026-05-05 03:25 | 28.45886 | 90.73335 | 38388 ft | 431 kts | 269° |
| 2026-05-05 03:25 | 28.45979 | 90.66530 | 38387 ft | 430 kts | 270° |
| 2026-05-05 03:26 | 28.46069 | 90.59759 | 38386 ft | 431 kts | 270° |
| 2026-05-05 03:26 | 28.46156 | 90.52947 | 38386 ft | 430 kts | 270° |
| 2026-05-05 03:27 | 28.46240 | 90.46142 | 38385 ft | 430 kts | 269° |
| 2026-05-05 03:27 | 28.46319 | 90.39367 | 38385 ft | 431 kts | 270° |
| 2026-05-05 03:28 | 28.46390 | 90.33038 | 38392 ft | 431 kts | 269° |
| 2026-05-05 03:28 | 28.46464 | 90.26208 | 38392 ft | 431 kts | 269° |
| 2026-05-05 03:29 | 28.46534 | 90.19414 | 38392 ft | 431 kts | 269° |
| 2026-05-05 03:29 | 28.46600 | 90.12639 | 38391 ft | 431 kts | 269° |
| 2026-05-05 03:30 | 28.46664 | 90.05858 | 38390 ft | 430 kts | 269° |
| 2026-05-05 03:30 | 28.46724 | 89.99056 | 38390 ft | 431 kts | 269° |
| 2026-05-05 03:31 | 28.46780 | 89.92302 | 38390 ft | 431 kts | 269° |
| 2026-05-05 03:31 | 28.46833 | 89.85516 | 38389 ft | 431 kts | 269° |
| 2026-05-05 03:32 | 28.46883 | 89.78693 | 38388 ft | 431 kts | 269° |
| 2026-05-05 03:32 | 28.46929 | 89.71910 | 38387 ft | 431 kts | 269° |
| 2026-05-05 03:33 | 28.46972 | 89.65103 | 38387 ft | 430 kts | 269° |
| 2026-05-05 03:33 | 28.46884 | 89.58323 | 38388 ft | 430 kts | 265° |
| 2026-05-05 03:34 | 28.46502 | 89.51530 | 38385 ft | 430 kts | 265° |
| 2026-05-05 03:34 | 28.46119 | 89.44733 | 38385 ft | 430 kts | 265° |
| 2026-05-05 03:35 | 28.45734 | 89.37987 | 38384 ft | 430 kts | 265° |
| 2026-05-05 03:35 | 28.45343 | 89.31208 | 38393 ft | 430 kts | 265° |
| 2026-05-05 03:36 | 28.44949 | 89.24442 | 38392 ft | 430 kts | 265° |
| 2026-05-05 03:36 | 28.44551 | 89.17658 | 38391 ft | 430 kts | 265° |
| 2026-05-05 03:37 | 28.44151 | 89.10896 | 38391 ft | 430 kts | 265° |
| 2026-05-05 03:37 | 28.43747 | 89.04136 | 38390 ft | 430 kts | 265° |
| 2026-05-05 03:38 | 28.43338 | 88.97356 | 38390 ft | 430 kts | 265° |
| 2026-05-05 03:38 | 28.42928 | 88.90598 | 38389 ft | 429 kts | 265° |
| 2026-05-05 03:39 | 28.42515 | 88.83855 | 38373 ft | 429 kts | 265° |
| 2026-05-05 03:39 | 28.42099 | 88.77113 | 38346 ft | 429 kts | 265° |
| 2026-05-05 03:40 | 28.41681 | 88.70382 | 38324 ft | 429 kts | 265° |
| 2026-05-05 03:40 | 28.41256 | 88.63605 | 38304 ft | 429 kts | 265° |
| 2026-05-05 03:41 | 28.40829 | 88.56854 | 38285 ft | 429 kts | 265° |
| 2026-05-05 03:41 | 28.40402 | 88.50150 | 38277 ft | 429 kts | 265° |
| 2026-05-05 03:42 | 28.39969 | 88.43401 | 38277 ft | 429 kts | 265° |
| 2026-05-05 03:42 | 28.39533 | 88.36668 | 38276 ft | 429 kts | 265° |
| 2026-05-05 03:43 | 28.39092 | 88.29903 | 38285 ft | 429 kts | 265° |
| 2026-05-05 03:43 | 28.38649 | 88.23158 | 38284 ft | 429 kts | 265° |
| 2026-05-05 03:44 | 28.38204 | 88.16428 | 38283 ft | 429 kts | 265° |
| 2026-05-05 03:44 | 28.37064 | 88.09837 | 38292 ft | 429 kts | 249° |
| 2026-05-05 03:45 | 28.34034 | 88.04062 | 38291 ft | 434 kts | 232° |
| 2026-05-05 03:45 | 28.29985 | 87.98959 | 38281 ft | 435 kts | 230° |
| 2026-05-05 03:46 | 28.25878 | 87.93948 | 38281 ft | 434 kts | 229° |
| 2026-05-05 03:46 | 28.21761 | 87.88990 | 38280 ft | 435 kts | 229° |
| 2026-05-05 03:47 | 28.17609 | 87.84021 | 38280 ft | 435 kts | 229° |
| 2026-05-05 03:47 | 28.13465 | 87.79076 | 38280 ft | 435 kts | 229° |
| 2026-05-05 03:48 | 28.09321 | 87.74140 | 38279 ft | 435 kts | 229° |
| 2026-05-05 03:48 | 28.05150 | 87.69179 | 38278 ft | 435 kts | 229° |
| 2026-05-05 03:49 | 28.01002 | 87.64253 | 38278 ft | 435 kts | 229° |
| 2026-05-05 03:49 | 27.96845 | 87.59319 | 38277 ft | 435 kts | 229° |
| 2026-05-05 03:50 | 27.92671 | 87.54375 | 38277 ft | 435 kts | 229° |
| 2026-05-05 03:50 | 27.88870 | 87.49876 | 38278 ft | 435 kts | 229° |
| 2026-05-05 03:51 | 27.84604 | 87.45044 | 38280 ft | 437 kts | 222° |
| 2026-05-05 03:51 | 27.79363 | 87.41608 | 38285 ft | 446 kts | 207° |
| 2026-05-05 03:52 | 27.73644 | 87.38899 | 38276 ft | 446 kts | 207° |
| 2026-05-05 03:52 | 27.67952 | 87.36241 | 38277 ft | 446 kts | 207° |
| 2026-05-05 03:53 | 27.62465 | 87.33701 | 38279 ft | 445 kts | 206° |
| 2026-05-05 03:53 | 27.59599 | 87.32378 | 37904 ft | 441 kts | 206° |
| 2026-05-05 03:53 | 27.56779 | 87.31077 | 37199 ft | 439 kts | 206° |
| 2026-05-05 03:54 | 27.51189 | 87.28503 | 37187 ft | 438 kts | 206° |
| 2026-05-05 03:54 | 27.45713 | 87.25993 | 37186 ft | 446 kts | 204° |
| 2026-05-05 03:55 | 27.39680 | 87.24567 | 37045 ft | 461 kts | 187° |
| 2026-05-05 03:55 | 27.33286 | 87.25436 | 37010 ft | 470 kts | 168° |
| 2026-05-05 03:56 | 27.27344 | 87.28597 | 37010 ft | 484 kts | 149° |
| 2026-05-05 03:56 | 27.22402 | 87.33800 | 37010 ft | 494 kts | 131° |
| 2026-05-05 03:57 | 27.18994 | 87.40526 | 37010 ft | 502 kts | 116° |
| 2026-05-05 03:57 | 27.15884 | 87.47489 | 37004 ft | 499 kts | 122° |
| 2026-05-05 03:58 | 27.12394 | 87.54208 | 37004 ft | 498 kts | 124° |
| 2026-05-05 03:58 | 27.08786 | 87.60852 | 37004 ft | 498 kts | 124° |
| 2026-05-05 03:59 | 27.05410 | 87.66976 | 36997 ft | 498 kts | 125° |
| 2026-05-05 03:59 | 27.01759 | 87.73557 | 36997 ft | 497 kts | 125° |
| 2026-05-05 04:00 | 26.98134 | 87.80072 | 36997 ft | 496 kts | 125° |
| 2026-05-05 04:00 | 26.94499 | 87.86595 | 36978 ft | 480 kts | 124° |
| 2026-05-05 04:01 | 26.92752 | 87.89727 | 36447 ft | 477 kts | 124° |
| 2026-05-05 04:01 | 26.91007 | 87.92850 | 35829 ft | 475 kts | 124° |
| 2026-05-05 04:01 | 26.89561 | 87.95436 | 35303 ft | 473 kts | 124° |